
Distance (Route):
Temperature : -50.9°C
Humidity : 0%
Pressure : 17.7hPa| Receiver | Date | Latitude | Longitude | Direction | Speed | Altitude | Climb | Temperature | Humidity | Pressure | Voltage | Killtimer | Uptime | BKT | XDATA |
|---|---|---|---|---|---|---|---|---|---|---|---|---|---|---|---|
| AA1-15 | 2026-08-30 12:59:06 | 54.91992 | 19.90572 | 244° | 93km/h | 828m | 5.5m/s | -50.9°C | 0% | 17.7hPa | 2.3V | 00:00:00 | 00:00:00 | 00:00:00 | |
| AA1-15 | 2026-08-30 12:58:09 | 54.88241 | 20.04042 | 6° | 15km/h | 2700m | 8.5m/s | -45.7°C | 0% | 12.2hPa | 2.3V | 00:00:00 | 00:00:00 | 00:00:00 | |
| AA1-15 | 2026-08-30 12:57:54 | 54.88163 | 20.04060 | 357° | 24km/h | 2533m | 10.7m/s | -45.2°C | 0% | 11hPa | 2.3V | 00:00:00 | 00:00:00 | 00:00:00 | |
| AA1-15 | 2026-08-30 12:56:52 | 54.87963 | 20.04065 | 4° | 27km/h | 2053m | 11.8m/s | -40.2°C | 0% | 6.9hPa | 2.3V | 00:00:00 | 00:00:00 | 00:00:00 | |
| AA1-15 | 2026-08-30 12:56:32 | 54.87714 | 20.04093 | 346° | 95km/h | 1938m | 8.3m/s | -40.5°C | 0% | 5.9hPa | 2.3V | 00:00:00 | 00:00:00 | 00:00:00 | |
| AA1-15 | 2026-08-30 12:55:47 | 54.87074 | 20.05438 | 276° | 97km/h | 1500m | 8.9m/s | -36.6°C | 0% | 4.8hPa | 2.3V | 00:00:00 | 00:00:00 | 00:00:00 | |
| AA1-15 | 2026-08-30 12:55:43 | 54.87050 | 20.05710 | 268° | 95km/h | 1399m | 7.9m/s | -36.9°C | 0% | 4.8hPa | 2.3V | 00:00:00 | 00:00:00 | 00:00:00 | |
| AA1-15 | 2026-08-30 12:55:31 | -12.04949 | -77.04634 | 0° | 0km/h | 159087m | 0m/s | -37.5°C | 0% | 4.9hPa | 2.3V | 00:00:00 | 00:00:00 | 00:00:00 | |
| AA1-15 | 2026-08-30 12:55:20 | -12.04526 | -77.04263 | 221° | 199km/h | 989m | 0.1m/s | -38°C | 0% | 5hPa | 2.3V | 00:00:00 | 00:00:00 | 00:00:00 | |
| AA1-15 | 2026-08-30 12:55:19 | -12.04487 | -77.04230 | 218° | 199km/h | 989m | -0.4m/s | -38°C | 0% | 5hPa | 2.3V | 00:00:00 | 00:00:00 | 00:00:00 | |
| AA1-15 | 2026-08-30 12:55:17 | -12.04406 | -77.04174 | 211° | 199km/h | 991m | -0.2m/s | -38°C | 0% | 5hPa | 2.3V | 00:00:00 | 00:00:00 | 00:00:00 | |
| AA1-15 | 2026-08-30 12:55:16 | -12.04362 | -77.04150 | 208° | 199km/h | 993m | 0.6m/s | -38°C | 0% | 5hPa | 2.3V | 00:00:00 | 00:00:00 | 00:00:00 | |
| AA1-15 | 2026-08-30 12:55:15 | -12.04316 | -77.04127 | 205° | 201km/h | 993m | 1m/s | -38°C | 0% | 5.1hPa | 2.3V | 00:00:00 | 00:00:00 | 00:00:00 | |
| AA1-15 | 2026-08-30 12:55:14 | -12.04269 | -77.04106 | 202° | 199km/h | 992m | 0.8m/s | -38°C | 0% | 5hPa | 2.3V | 00:00:00 | 00:00:00 | 00:00:00 | |
| AA1-15 | 2026-08-30 12:55:12 | -12.04172 | -77.04071 | 196° | 199km/h | 987m | 0.3m/s | -38°C | 0% | 5.1hPa | 2.3V | 00:00:00 | 00:00:00 | 00:00:00 | |
| AA1-15 | 2026-08-30 12:55:10 | -12.04075 | -77.04049 | 189° | 197km/h | 988m | -0.2m/s | -38.2°C | 0% | 5.1hPa | 2.3V | 00:00:00 | 00:00:00 | 00:00:00 | |
| AA1-15 | 2026-08-30 12:55:09 | -12.04025 | -77.04042 | 185° | 197km/h | 988m | -0.4m/s | -38.2°C | 0% | 5.1hPa | 2.3V | 00:00:00 | 00:00:00 | 00:00:00 | |
| AA1-15 | 2026-08-30 12:55:01 | -12.03492 | -77.03971 | 0° | 0km/h | 159087m | 0m/s | -38.3°C | 0% | 5.2hPa | 2.3V | 00:00:00 | 00:00:00 | 00:00:00 | |
| AA1-15 | 2026-08-30 12:54:50 | -12.03181 | -77.04432 | 124° | 197km/h | 990m | 2.1m/s | -38.4°C | 0% | 5.2hPa | 2.3V | 00:00:00 | 00:00:00 | 00:00:00 | |
| AA1-15 | 2026-08-30 12:54:49 | -12.03153 | -77.04475 | 124° | 190km/h | 991m | 1.7m/s | -38.4°C | 0% | 5.3hPa | 2.3V | 00:00:00 | 00:00:00 | 00:00:00 | |
| AA1-15 | 2026-08-30 12:54:47 | -12.03103 | -77.04563 | 112° | 204km/h | 983m | -3.7m/s | -38.5°C | 0% | 5.3hPa | 2.3V | 00:00:00 | 00:00:00 | 00:00:00 | |
| AA1-15 | 2026-08-30 12:54:45 | -12.03067 | -77.04662 | 106° | 204km/h | 986m | -2.7m/s | -38.5°C | 0% | 5.3hPa | 2.3V | 00:00:00 | 00:00:00 | 00:00:00 | |
| AA1-15 | 2026-08-30 12:54:43 | -12.03043 | -77.04762 | 100° | 197km/h | 991m | -0.1m/s | -38.6°C | 0% | 5.3hPa | 2.3V | 00:00:00 | 00:00:00 | 00:00:00 | |
| AA1-15 | 2026-08-30 12:54:41 | -12.03025 | -77.04913 | 94° | 193km/h | 986m | 1.1m/s | -38.6°C | 0% | 5.3hPa | 2.3V | 00:00:00 | 00:00:00 | 00:00:00 | |
| AA1-15 | 2026-08-30 12:54:39 | -12.03024 | -77.04964 | 89° | 190km/h | 987m | 2.1m/s | -38.6°C | 0% | 5.3hPa | 2.3V | 00:00:00 | 00:00:00 | 00:00:00 | |
| AA1-15 | 2026-08-30 12:54:38 | -12.03027 | -77.05014 | 85° | 203km/h | 985m | -0.8m/s | -38.7°C | 0% | 5.3hPa | 2.3V | 00:00:00 | 00:00:00 | 00:00:00 | |
| AA1-15 | 2026-08-30 12:54:36 | -12.03040 | -77.05118 | 79° | 199km/h | 987m | -1.7m/s | -38.8°C | 0% | 5.3hPa | 2.3V | 00:00:00 | 00:00:00 | 00:00:00 | |
| AA1-15 | 2026-08-30 12:54:35 | -12.03051 | -77.05169 | 76° | 201km/h | 988m | -0.5m/s | -38.8°C | 0% | 5.3hPa | 2.3V | 00:00:00 | 00:00:00 | 00:00:00 | |
| AA1-15 | 2026-08-30 12:54:34 | -12.03065 | -77.05219 | 72° | 197km/h | 988m | -1.1m/s | -38.8°C | 0% | 5.3hPa | 2.3V | 00:00:00 | 00:00:00 | 00:00:00 | |
| AA1-15 | 2026-08-30 12:54:33 | -12.03081 | -77.05267 | 70° | 197km/h | 989m | -1.1m/s | -38.9°C | 0% | 5.3hPa | 2.3V | 00:00:00 | 00:00:00 | 00:00:00 | |
| AA1-15 | 2026-08-30 12:54:31 | -12.03120 | -77.05361 | 64° | 199km/h | 991m | -0.9m/s | -39°C | 0% | 5.4hPa | 2.3V | 00:00:00 | 00:00:00 | 00:00:00 | |
| AA1-15 | 2026-08-30 12:54:30 | -12.03144 | -77.05406 | 60° | 201km/h | 992m | -0.6m/s | -39°C | 0% | 5.4hPa | 2.3V | 00:00:00 | 00:00:00 | 00:00:00 | |
| AA1-15 | 2026-08-30 12:54:28 | -12.03200 | -77.05493 | 54° | 201km/h | 990m | -0m/s | -39°C | 0% | 5.4hPa | 2.3V | 00:00:00 | 00:00:00 | 00:00:00 | |
| AA1-15 | 2026-08-30 12:54:27 | -12.03232 | -77.05534 | 51° | 199km/h | 986m | 1.4m/s | -38.9°C | 0% | 5.5hPa | 2.3V | 00:00:00 | 00:00:00 | 00:00:00 | |
| AA1-15 | 2026-08-30 12:54:25 | -12.03299 | -77.05610 | 44° | 197km/h | 985m | -1.2m/s | -39°C | 0% | 5.4hPa | 2.3V | 00:00:00 | 00:00:00 | 00:00:00 | |
| AA1-15 | 2026-08-30 12:54:23 | -12.03376 | -77.05678 | 38° | 201km/h | 988m | -0.7m/s | -39°C | 0% | 5.4hPa | 2.3V | 00:00:00 | 00:00:00 | 00:00:00 | |
| AA1-15 | 2026-08-30 12:54:21 | -12.03459 | -77.05737 | 32° | 199km/h | 989m | -0.3m/s | -39.1°C | 0% | 5.5hPa | 2.3V | 00:00:00 | 00:00:00 | 00:00:00 | |
| AA1-15 | 2026-08-30 12:54:19 | -12.03548 | -77.05787 | 24° | 197km/h | 985m | -0.1m/s | -39.1°C | 0% | 5.5hPa | 2.3V | 00:00:00 | 00:00:00 | 00:00:00 | |
| AA1-15 | 2026-08-30 12:54:18 | -12.03595 | -77.05807 | 22° | 199km/h | 985m | 0.3m/s | -39.1°C | 0% | 5.5hPa | 2.3V | 00:00:00 | 00:00:00 | 00:00:00 | |
| AA1-15 | 2026-08-30 12:54:16 | -12.03691 | -77.05840 | 16° | 201km/h | 986m | 0m/s | -39.2°C | 0% | 5.5hPa | 2.3V | 00:00:00 | 00:00:00 | 00:00:00 | |
| AA1-15 | 2026-08-30 12:54:15 | -12.03740 | -77.05853 | 12° | 197km/h | 987m | 0.1m/s | -39.3°C | 0% | 5.5hPa | 2.3V | 00:00:00 | 00:00:00 | 00:00:00 | |
| AA1-15 | 2026-08-30 12:54:13 | -12.03840 | -77.05869 | 6° | 199km/h | 988m | 0.1m/s | -39.3°C | 0% | 5.5hPa | 2.3V | 00:00:00 | 00:00:00 | 00:00:00 | |
| AA1-15 | 2026-08-30 12:54:12 | -12.03890 | -77.05873 | 3° | 199km/h | 988m | 0.2m/s | -39.3°C | 0% | 5.5hPa | 2.3V | 00:00:00 | 00:00:00 | 00:00:00 | |
| AA1-15 | 2026-08-30 12:54:11 | -12.03941 | -77.05874 | 360° | 199km/h | 988m | -0.1m/s | -39.2°C | 0% | 5.5hPa | 2.3V | 00:00:00 | 00:00:00 | 00:00:00 | |
| AA1-15 | 2026-08-30 12:54:08 | -12.04092 | -77.05858 | 349° | 201km/h | 988m | 0.9m/s | -39.1°C | 0% | 5.6hPa | 2.3V | 00:00:00 | 00:00:00 | 00:00:00 | |
| AA1-15 | 2026-08-30 12:54:07 | -12.04141 | -77.05848 | 347° | 199km/h | 988m | 0.5m/s | -39.1°C | 0% | 5.5hPa | 2.3V | 00:00:00 | 00:00:00 | 00:00:00 | |
| AA1-15 | 2026-08-30 12:54:05 | -12.04239 | -77.05819 | 340° | 199km/h | 988m | -0.2m/s | -39.2°C | 0% | 5.6hPa | 2.3V | 00:00:00 | 00:00:00 | 00:00:00 | |
| AA1-15 | 2026-08-30 12:54:04 | -12.04286 | -77.05800 | 337° | 199km/h | 988m | -0.2m/s | -39.1°C | 0% | 5.6hPa | 2.3V | 00:00:00 | 00:00:00 | 00:00:00 | |
| AA1-15 | 2026-08-30 12:54:02 | -12.04377 | -77.05756 | 331° | 199km/h | 990m | -0.1m/s | -39.3°C | 0% | 5.6hPa | 2.3V | 00:00:00 | 00:00:00 | 00:00:00 | |
| AA1-15 | 2026-08-30 12:53:59 | -12.04502 | -77.05669 | 321° | 199km/h | 991m | 0m/s | -39.3°C | 0% | 5.6hPa | 2.3V | 00:00:00 | 00:00:00 | 00:00:00 | |
| AA1-15 | 2026-08-30 12:53:58 | -12.04541 | -77.05636 | 318° | 199km/h | 991m | 0.3m/s | -39.4°C | 0% | 5.7hPa | 2.3V | 00:00:00 | 00:00:00 | 00:00:00 | |
| AA1-15 | 2026-08-30 12:53:56 | -12.04612 | -77.05562 | 311° | 199km/h | 985m | 0m/s | -39.4°C | 0% | 5.6hPa | 2.3V | 00:00:00 | 00:00:00 | 00:00:00 | |
| AA1-15 | 2026-08-30 12:53:54 | -12.04674 | -77.05481 | 305° | 199km/h | 986m | -0.2m/s | -39.4°C | 0% | 5.7hPa | 2.3V | 00:00:00 | 00:00:00 | 00:00:00 | |
| AA1-15 | 2026-08-30 12:53:52 | -12.04728 | -77.05395 | 299° | 199km/h | 989m | -0m/s | -39.8°C | 0% | 5.7hPa | 2.3V | 00:00:00 | 00:00:00 | 00:00:00 | |
| AA1-15 | 2026-08-30 12:53:51 | -12.04751 | -77.05349 | 295° | 199km/h | 989m | -0.6m/s | -39.8°C | 0% | 5.7hPa | 2.3V | 00:00:00 | 00:00:00 | 00:00:00 | |
| AA1-15 | 2026-08-30 12:53:50 | -12.04771 | -77.05302 | 292° | 199km/h | 990m | -0.1m/s | -39.8°C | 0% | 5.7hPa | 2.3V | 00:00:00 | 00:00:00 | 00:00:00 | |
| AA1-15 | 2026-08-30 12:53:48 | -12.04804 | -77.05204 | 286° | 199km/h | 987m | -0.1m/s | -40°C | 0% | 5.7hPa | 2.3V | 00:00:00 | 00:00:00 | 00:00:00 | |
| AA1-15 | 2026-08-30 12:53:46 | -12.04825 | -77.05103 | 279° | 199km/h | 987m | 0m/s | -40.1°C | 0% | 5.7hPa | 2.3V | 00:00:00 | 00:00:00 | 00:00:00 | |
| AA1-15 | 2026-08-30 12:53:44 | -12.04837 | -77.05001 | 273° | 199km/h | 985m | -0.1m/s | -40°C | 0% | 5.8hPa | 2.3V | 00:00:00 | 00:00:00 | 00:00:00 | |
| AA1-15 | 2026-08-30 12:53:43 | -12.04838 | -77.04950 | 270° | 199km/h | 984m | 0.1m/s | -40°C | 0% | 5.8hPa | 2.3V | 00:00:00 | 00:00:00 | 00:00:00 | |
| AA1-15 | 2026-08-30 12:53:42 | -12.04836 | -77.04898 | 267° | 199km/h | 983m | 0m/s | -40.1°C | 0% | 5.8hPa | 2.3V | 00:00:00 | 00:00:00 | 00:00:00 | |
| AA1-15 | 2026-08-30 12:53:40 | -12.04824 | -77.04796 | 260° | 199km/h | 981m | 0m/s | -40.1°C | 0% | 5.8hPa | 2.3V | 00:00:00 | 00:00:00 | 00:00:00 | |
| AA1-15 | 2026-08-30 12:53:39 | -12.04814 | -77.04746 | 257° | 199km/h | 983m | -0.3m/s | -40°C | 0% | 5.8hPa | 2.3V | 00:00:00 | 00:00:00 | 00:00:00 | |
| AA1-15 | 2026-08-30 12:53:37 | -12.04785 | -77.04648 | 250° | 201km/h | 988m | 0.9m/s | -40°C | 0% | 5.8hPa | 2.3V | 00:00:00 | 00:00:00 | 00:00:00 | |
| AA1-15 | 2026-08-30 12:53:36 | -12.04767 | -77.04600 | 248° | 197km/h | 987m | 0.4m/s | -40°C | 0% | 5.8hPa | 2.3V | 00:00:00 | 00:00:00 | 00:00:00 | |
| AA1-15 | 2026-08-30 12:53:35 | -12.04746 | -77.04553 | 244° | 199km/h | 987m | 0.1m/s | -40°C | 0% | 5.8hPa | 2.3V | 00:00:00 | 00:00:00 | 00:00:00 | |
| AA1-15 | 2026-08-30 12:53:34 | -12.04723 | -77.04508 | 241° | 199km/h | 988m | -0.2m/s | -40°C | 0% | 5.9hPa | 2.3V | 00:00:00 | 00:00:00 | 00:00:00 | |
| AA1-15 | 2026-08-30 12:53:32 | -12.04669 | -77.04421 | 235° | 201km/h | 989m | 0.6m/s | -40.1°C | 0% | 5.8hPa | 2.3V | 00:00:00 | 00:00:00 | 00:00:00 | |
| AA1-15 | 2026-08-30 12:53:31 | -12.04639 | -77.04381 | 231° | 199km/h | 991m | -0.1m/s | -40.1°C | 0% | 5.9hPa | 2.3V | 00:00:00 | 00:00:00 | 00:00:00 | |
| AA1-15 | 2026-08-30 12:53:30 | -12.04607 | -77.04341 | 228° | 199km/h | 991m | -0.2m/s | -40.3°C | 0% | 5.9hPa | 2.3V | 00:00:00 | 00:00:00 | 00:00:00 | |
| AA1-15 | 2026-08-30 12:53:29 | -12.04572 | -77.04304 | 225° | 201km/h | 991m | 0.7m/s | -40.5°C | 0% | 5.9hPa | 2.3V | 00:00:00 | 00:00:00 | 00:00:00 | |
| AA1-15 | 2026-08-30 12:53:27 | -12.04494 | -77.04235 | 218° | 199km/h | 988m | 0m/s | -40.4°C | 0% | 5.9hPa | 2.3V | 00:00:00 | 00:00:00 | 00:00:00 | |
| AA1-15 | 2026-08-30 12:53:25 | -12.04411 | -77.04176 | 212° | 199km/h | 987m | 0.3m/s | -40.5°C | 0% | 6hPa | 2.3V | 00:00:00 | 00:00:00 | 00:00:00 | |
| AA1-15 | 2026-08-30 12:53:24 | -12.04368 | -77.04151 | 209° | 197km/h | 988m | -0.1m/s | -40.4°C | 0% | 6hPa | 2.3V | 00:00:00 | 00:00:00 | 00:00:00 | |
| AA1-15 | 2026-08-30 12:53:23 | -12.04323 | -77.04127 | 206° | 199km/h | 985m | -0m/s | -40.4°C | 0% | 5.9hPa | 2.3V | 00:00:00 | 00:00:00 | 00:00:00 | |
| AA1-15 | 2026-08-30 12:53:21 | -12.04229 | -77.04087 | 199° | 199km/h | 986m | -0.1m/s | -40.4°C | 0% | 6hPa | 2.3V | 00:00:00 | 00:00:00 | 00:00:00 | |
| SP3BTT-10 | 2026-08-30 12:53:20 | -12.04229 | -77.04087 | 199° | 199km/h | 986m | -0.0m/s | 0°C | 0% | 0hPa | 2.3V | 00:00:00 | 00:00:00 | 00:00:00 | |
| AA1-15 | 2026-08-30 12:53:20 | -12.04180 | -77.04071 | 196° | 199km/h | 986m | -0.5m/s | -40.3°C | 0% | 6hPa | 2.3V | 00:00:00 | 00:00:00 | 00:00:00 | |
| AA1-15 | 2026-08-30 12:53:18 | -12.04082 | -77.04049 | 189° | 199km/h | 985m | -0.1m/s | -40.4°C | 0% | 6hPa | 2.3V | 00:00:00 | 00:00:00 | 00:00:00 | |
| AA1-15 | 2026-08-30 12:53:16 | -12.03981 | -77.04038 | 183° | 199km/h | 985m | 0.5m/s | -40.2°C | 0% | 6hPa | 2.3V | 00:00:00 | 00:00:00 | 00:00:00 | |
| AA1-15 | 2026-08-30 12:53:15 | -12.03930 | -77.04036 | 180° | 199km/h | 985m | -0.4m/s | -40.2°C | 0% | 6hPa | 2.3V | 00:00:00 | 00:00:00 | 00:00:00 | |
| AA1-15 | 2026-08-30 12:53:13 | -12.03829 | -77.04043 | 173° | 199km/h | 985m | -0.6m/s | -40.2°C | 0% | 6hPa | 2.3V | 00:00:00 | 00:00:00 | 00:00:00 | |
| AA1-15 | 2026-08-30 12:53:11 | -12.03730 | -77.04060 | 167° | 199km/h | 987m | 0.1m/s | -40°C | 0% | 6hPa | 2.3V | 00:00:00 | 00:00:00 | 00:00:00 | |
| AA1-15 | 2026-08-30 12:53:10 | -12.03681 | -77.04073 | 163° | 199km/h | 987m | -0.8m/s | -40.1°C | 0% | 6hPa | 2.3V | 00:00:00 | 00:00:00 | 00:00:00 | |
| AA1-15 | 2026-08-30 12:53:09 | -12.03633 | -77.04089 | 161° | 199km/h | 988m | -0m/s | -40.2°C | 0% | 6hPa | 2.3V | 00:00:00 | 00:00:00 | 00:00:00 | |
| AA1-15 | 2026-08-30 12:53:08 | -12.03585 | -77.04107 | 157° | 199km/h | 988m | 0.2m/s | -40.2°C | 0% | 6.1hPa | 2.3V | 00:00:00 | 00:00:00 | 00:00:00 | |
| AA1-15 | 2026-08-30 12:53:06 | -12.03451 | -77.04179 | 148° | 199km/h | 988m | 0.1m/s | -40.1°C | 0% | 6.1hPa | 2.3V | 00:00:00 | 00:00:00 | 00:00:00 | |
| AA1-15 | 2026-08-30 12:53:04 | -12.03409 | -77.04207 | 144° | 199km/h | 988m | 0.5m/s | -40°C | 0% | 6.1hPa | 2.3V | 00:00:00 | 00:00:00 | 00:00:00 | |
| SQ2ODE-11 | 2026-08-30 12:53:03 | -12.03330 | -77.04271 | 139° | 199km/h | 987m | 0.1m/s | 0°C | 0% | 0hPa | 2.3V | 00:00:00 | 00:00:00 | 00:00:00 | |
| AA1-15 | 2026-08-30 12:53:02 | -12.03330 | -77.04271 | 138° | 199km/h | 987m | 0.1m/s | -39.9°C | 0% | 6.2hPa | 2.3V | 00:00:00 | 00:00:00 | 00:00:00 | |
| AA1-15 | 2026-08-30 12:53:01 | -12.03293 | -77.04306 | 135° | 199km/h | 988m | -0.1m/s | -39.8°C | 0% | 6.1hPa | 2.3V | 00:00:00 | 00:00:00 | 00:00:00 | |
| AA1-15 | 2026-08-30 12:53:00 | -12.03258 | -77.04344 | 132° | 199km/h | 987m | 0.4m/s | -39.8°C | 0% | 6.1hPa | 2.3V | 00:00:00 | 00:00:00 | 00:00:00 | |
| AA1-15 | 2026-08-30 12:52:58 | -12.03195 | -77.04424 | 125° | 199km/h | 988m | 0.3m/s | -39.8°C | 0% | 6.1hPa | 2.3V | 00:00:00 | 00:00:00 | 00:00:00 | |
| AA1-15 | 2026-08-30 12:52:57 | -12.03167 | -77.04466 | 122° | 199km/h | 985m | 0.2m/s | -39.8°C | 0% | 6.2hPa | 2.3V | 00:00:00 | 00:00:00 | 00:00:00 | |
| AA1-15 | 2026-08-30 12:52:55 | -12.03119 | -77.04557 | 116° | 199km/h | 986m | -0.2m/s | -39.7°C | 0% | 6.2hPa | 2.3V | 00:00:00 | 00:00:00 | 00:00:00 | |
| AA1-15 | 2026-08-30 12:52:54 | -12.03098 | -77.04604 | 112° | 201km/h | 986m | -0.2m/s | -39.7°C | 0% | 6.2hPa | 2.3V | 00:00:00 | 00:00:00 | 00:00:00 | |
| AA1-15 | 2026-08-30 12:52:53 | -12.03080 | -77.04652 | 109° | 199km/h | 986m | -0.1m/s | -39.8°C | 0% | 6.2hPa | 2.3V | 00:00:00 | 00:00:00 | 00:00:00 | |
| AA1-15 | 2026-08-30 12:52:51 | -12.03053 | -77.04751 | 103° | 199km/h | 985m | 0.2m/s | -39.7°C | 0% | 6.2hPa | 2.3V | 00:00:00 | 00:00:00 | 00:00:00 | |
| AA1-15 | 2026-08-30 12:52:50 | -12.03044 | -77.04802 | 99° | 199km/h | 985m | 0.1m/s | -39.7°C | 0% | 6.2hPa | 2.3V | 00:00:00 | 00:00:00 | 00:00:00 | |
| AA1-15 | 2026-08-30 12:52:49 | -12.03037 | -77.04853 | 96° | 199km/h | 984m | 0m/s | -39.8°C | 0% | 6.2hPa | 2.3V | 00:00:00 | 00:00:00 | 00:00:00 | |
| AA1-15 | 2026-08-30 12:52:47 | -12.03030 | -77.04956 | 90° | 197km/h | 983m | 0.3m/s | -39.7°C | 0% | 6.3hPa | 2.3V | 00:00:00 | 00:00:00 | 00:00:00 | |
| AA1-15 | 2026-08-30 12:52:46 | -12.03032 | -77.05008 | 87° | 199km/h | 983m | -0.5m/s | -39.8°C | 0% | 6.3hPa | 2.3V | 00:00:00 | 00:00:00 | 00:00:00 | |
| SP3BTT-10 | 2026-08-30 12:52:45 | -12.03032 | -77.05008 | 87° | 199km/h | 983m | -0.5m/s | 0°C | 0% | 0hPa | 2.3V | 00:00:00 | 00:00:00 | 00:00:00 | |
| SQ2ODE-11 | 2026-08-30 12:52:45 | -12.03036 | -77.05058 | 85° | 199km/h | 982m | 0.3m/s | 0°C | 0% | 0hPa | 2.3V | 00:00:00 | 00:00:00 | 00:00:00 | |
| AA1-15 | 2026-08-30 12:52:45 | -12.03036 | -77.05058 | 84° | 199km/h | 982m | 0.3m/s | -39.8°C | 0% | 6.2hPa | 2.3V | 00:00:00 | 00:00:00 | 00:00:00 | |
| AA1-15 | 2026-08-30 12:52:43 | -12.03053 | -77.05159 | 77° | 199km/h | 981m | -0.4m/s | -39.8°C | 0% | 6.3hPa | 2.3V | 00:00:00 | 00:00:00 | 00:00:00 | |
| AA1-15 | 2026-08-30 12:52:42 | -12.03065 | -77.05209 | 74° | 199km/h | 979m | 0.2m/s | -39.9°C | 0% | 6.3hPa | 2.3V | 00:00:00 | 00:00:00 | 00:00:00 | |
| AA1-15 | 2026-08-30 12:52:40 | -12.03099 | -77.05308 | 67° | 199km/h | 983m | -0.3m/s | -40°C | 0% | 6.3hPa | 2.3V | 00:00:00 | 00:00:00 | 00:00:00 | |
| AA1-15 | 2026-08-30 12:52:39 | -12.03120 | -77.05355 | 64° | 199km/h | 985m | -0.8m/s | -40°C | 0% | 6.3hPa | 2.3V | 00:00:00 | 00:00:00 | 00:00:00 | |
| AA1-15 | 2026-08-30 12:52:38 | -12.03143 | -77.05401 | 61° | 199km/h | 986m | 0.1m/s | -40°C | 0% | 6.3hPa | 2.3V | 00:00:00 | 00:00:00 | 00:00:00 | |
| SP3BTT-10 | 2026-08-30 12:52:37 | -12.03143 | -77.05401 | 62° | 22km/h | 986m | 0.1m/s | 0°C | 0% | 0hPa | 2.3V | 00:00:00 | 00:00:00 | 00:00:00 | |
| SQ2ODE-11 | 2026-08-30 12:52:36 | -12.03169 | -77.05446 | 59° | 199km/h | 986m | 0.0m/s | 0°C | 0% | 0hPa | 2.3V | 00:00:00 | 00:00:00 | 00:00:00 | |
| AA1-15 | 2026-08-30 12:52:36 | -12.03197 | -77.05489 | 55° | 199km/h | 986m | 0.1m/s | -40.2°C | 0% | 6.3hPa | 2.3V | 00:00:00 | 00:00:00 | 00:00:00 | |
| AA1-15 | 2026-08-30 12:52:34 | -12.03260 | -77.05576 | 48° | 199km/h | 994m | 0.1m/s | -40.1°C | 0% | 6.4hPa | 2.3V | 00:00:00 | 00:00:00 | 00:00:00 | |
| AA1-15 | 2026-08-30 12:52:33 | -12.03294 | -77.05616 | 45° | 197km/h | 996m | 1m/s | -40.1°C | 0% | 6.4hPa | 2.3V | 00:00:00 | 00:00:00 | 00:00:00 | |
| AA1-15 | 2026-08-30 12:52:32 | -12.03331 | -77.05655 | 39° | 190km/h | 1001m | 5m/s | -40.1°C | 0% | 6.4hPa | 2.3V | 00:00:00 | 00:00:00 | 00:00:00 | |
| AA1-15 | 2026-08-30 12:52:31 | -12.03370 | -77.05684 | 37° | 192km/h | 995m | 3m/s | -40.1°C | 0% | 6.4hPa | 2.3V | 00:00:00 | 00:00:00 | 00:00:00 | |
| AA1-15 | 2026-08-30 12:52:29 | -12.03452 | -77.05741 | 32° | 199km/h | 991m | -0.6m/s | -40°C | 0% | 6.4hPa | 2.3V | 00:00:00 | 00:00:00 | 00:00:00 | |
| AA1-15 | 2026-08-30 12:52:28 | -12.03496 | -77.05769 | 29° | 199km/h | 993m | -0.4m/s | -39.9°C | 0% | 6.4hPa | 2.3V | 00:00:00 | 00:00:00 | 00:00:00 | |
| AA1-15 | 2026-08-30 12:52:26 | -12.03586 | -77.05814 | 23° | 199km/h | 992m | 0m/s | -39.9°C | 0% | 6.4hPa | 2.3V | 00:00:00 | 00:00:00 | 00:00:00 | |
| AA1-15 | 2026-08-30 12:52:25 | -12.03682 | -77.05861 | 14° | 197km/h | 1011m | 2.6m/s | -39.9°C | 0% | 6.4hPa | 2.3V | 00:00:00 | 00:00:00 | 00:00:00 | |
| AA1-15 | 2026-08-30 12:52:23 | -12.03732 | -77.05875 | 11° | 195km/h | 1016m | 2.2m/s | -39.9°C | 0% | 6.5hPa | 2.3V | 00:00:00 | 00:00:00 | 00:00:00 | |
| AA1-15 | 2026-08-30 12:52:21 | -12.03829 | -77.05898 | 6° | 199km/h | 1016m | 0.5m/s | -39.9°C | 0% | 6.5hPa | 2.3V | 00:00:00 | 00:00:00 | 00:00:00 | |
| AA1-15 | 2026-08-30 12:52:12 | 54.95133 | 19.26767 | 0° | 0km/h | 159087m | 0m/s | -40°C | 0% | 6.6hPa | 2.3V | 00:00:00 | 00:00:00 | 00:00:00 | |
| AA1-15 | 2026-08-30 12:52:01 | 54.95133 | 19.26767 | 0° | 0km/h | 159087m | 0m/s | -40.1°C | 0% | 6.6hPa | 2.3V | 00:00:00 | 00:00:00 | 00:00:00 | |
| AA1-15 | 2026-08-30 12:51:51 | 54.95133 | 19.26767 | 0° | 0km/h | 159087m | 0m/s | -40.2°C | 0% | 6.7hPa | 2.3V | 00:00:00 | 00:00:00 | 00:00:00 | |
| AA1-15 | 2026-08-30 12:51:41 | 54.95133 | 19.26767 | 0° | 0km/h | 159087m | 0m/s | -39.8°C | 0% | 6.8hPa | 2.3V | 00:00:00 | 00:00:00 | 00:00:00 | |
| AA1-15 | 2026-08-30 12:51:30 | 54.95133 | 19.26767 | 0° | 0km/h | 159087m | 0m/s | -39.7°C | 0% | 7hPa | 2.3V | 00:00:00 | 00:00:00 | 00:00:00 | |
| AA1-15 | 2026-08-30 12:51:00 | 54.95137 | 19.26902 | 270° | 16km/h | 1763m | 8m/s | -40.8°C | 0% | 7.2hPa | 2.3V | 00:00:00 | 00:00:00 | 00:00:00 | |
| AA1-15 | 2026-08-30 12:50:41 | 54.95164 | 19.27039 | 253° | 62km/h | 1582m | 5.6m/s | -41.2°C | 0% | 7.4hPa | 2.3V | 00:00:00 | 00:00:00 | 00:00:00 | |
| AA1-15 | 2026-08-30 12:50:35 | 54.95210 | 19.27261 | 238° | 93km/h | 1526m | 8.4m/s | -41.3°C | 0% | 7.5hPa | 2.3V | 00:00:00 | 00:00:00 | 00:00:00 | |
| AA1-15 | 2026-08-30 12:50:34 | 54.95226 | 19.27292 | 232° | 93km/h | 1516m | 7.8m/s | -41.3°C | 0% | 7.5hPa | 2.3V | 00:00:00 | 00:00:00 | 00:00:00 | |
| AA1-15 | 2026-08-30 12:50:26 | 54.95398 | 19.27435 | 182° | 100km/h | 1451m | 7.9m/s | -41.8°C | 0% | 7.5hPa | 2.3V | 00:00:00 | 00:00:00 | 00:00:00 | |
| AA1-15 | 2026-08-30 12:50:19 | 54.95563 | 19.27336 | 140° | 99km/h | 1402m | 8.3m/s | -41.8°C | 0% | 7.6hPa | 2.3V | 00:00:00 | 00:00:00 | 00:00:00 | |
| AA1-15 | 2026-08-30 12:50:16 | 54.95610 | 19.27241 | 120° | 95km/h | 1391m | 8.7m/s | -41.7°C | 0% | 7.7hPa | 2.3V | 00:00:00 | 00:00:00 | 00:00:00 | |
| AA1-15 | 2026-08-30 12:49:43 | 55.08036 | 19.72758 | 0° | 0km/h | 159087m | 0m/s | -41.4°C | 0% | 8hPa | 2.3V | 00:00:00 | 00:00:00 | 00:00:00 | |
| AA1-15 | 2026-08-30 12:49:21 | 55.08036 | 19.72758 | 0° | 0km/h | 159087m | 0m/s | -40.7°C | 0% | 8.2hPa | 2.3V | 00:00:00 | 00:00:00 | 00:00:00 | |
| AA1-15 | 2026-08-30 12:49:11 | 55.08036 | 19.72758 | 0° | 0km/h | 159087m | 0m/s | -40.7°C | 0% | 8.3hPa | 2.3V | 00:00:00 | 00:00:00 | 00:00:00 | |
| AA1-15 | 2026-08-30 12:49:00 | 55.08036 | 19.72758 | 0° | 0km/h | 159087m | 0m/s | -40.4°C | 0% | 8.4hPa | 2.3V | 00:00:00 | 00:00:00 | 00:00:00 | |
| AA1-15 | 2026-08-30 12:48:49 | 55.08117 | 19.72848 | 212° | 38km/h | 159087m | 6.1m/s | -40.4°C | 0% | 8.6hPa | 2.3V | 00:00:00 | 00:00:00 | 00:00:00 | |
| AA1-15 | 2026-08-30 12:48:38 | 55.08143 | 19.72893 | 258° | 18km/h | 2691m | 9m/s | -40.4°C | 0% | 8.7hPa | 2.3V | 00:00:00 | 00:00:00 | 00:00:00 | |
| AA1-15 | 2026-08-30 12:48:28 | 55.08147 | 19.72913 | 288° | 15km/h | 2568m | 7.6m/s | -40.5°C | 0% | 8.8hPa | 2.3V | 00:00:00 | 00:00:00 | 00:00:00 | |
| AA1-15 | 2026-08-30 12:48:14 | 55.08126 | 19.73028 | 272° | 13km/h | 2504m | 8m/s | -41°C | 0% | 8.9hPa | 2.3V | 00:00:00 | 00:00:00 | 00:00:00 | |
| AA1-15 | 2026-08-30 12:48:04 | 55.08128 | 19.73143 | 281° | 13km/h | 2436m | 8.6m/s | -41.2°C | 0% | 9.1hPa | 2.3V | 00:00:00 | 00:00:00 | 00:00:00 | |
| AA1-15 | 2026-08-30 12:47:53 | 55.08159 | 19.73219 | 270° | 16km/h | 2332m | 7.9m/s | -41.4°C | 0% | 9.2hPa | 2.3V | 00:00:00 | 00:00:00 | 00:00:00 | |
| AA1-15 | 2026-08-30 12:47:43 | 55.08175 | 19.73282 | 271° | 13km/h | 2245m | 8.1m/s | -42°C | 0% | 9.3hPa | 2.3V | 00:00:00 | 00:00:00 | 00:00:00 | |
| AA1-15 | 2026-08-30 12:47:33 | 55.08171 | 19.73362 | 272° | 13km/h | 2179m | 8.1m/s | -42.6°C | 0% | 9.4hPa | 2.3V | 00:00:00 | 00:00:00 | 00:00:00 | |
| AA1-15 | 2026-08-30 12:47:23 | 55.08184 | 19.73420 | 263° | 13km/h | 2087m | 7.3m/s | -43.2°C | 0% | 9.6hPa | 2.3V | 00:00:00 | 00:00:00 | 00:00:00 | |
| AA1-15 | 2026-08-30 12:47:12 | 55.08222 | 19.73493 | 274° | 16km/h | 1994m | 8.5m/s | -43.4°C | 0% | 9.7hPa | 2.3V | 00:00:00 | 00:00:00 | 00:00:00 | |
| AA1-15 | 2026-08-30 12:47:10 | 55.08225 | 19.73510 | 271° | 13km/h | 1984m | 8m/s | -43.5°C | 0% | 9.7hPa | 2.3V | 00:00:00 | 00:00:00 | 00:00:00 | |
| AA1-15 | 2026-08-30 12:47:07 | 55.08253 | 19.73524 | 268° | 13km/h | 1963m | 8.1m/s | -43.6°C | 0% | 9.7hPa | 2.3V | 00:00:00 | 00:00:00 | 00:00:00 | |
| AA1-15 | 2026-08-30 12:47:05 | 55.08238 | 19.73558 | 269° | 13km/h | 1977m | 8.1m/s | -43.5°C | 0% | 9.7hPa | 2.3V | 00:00:00 | 00:00:00 | 00:00:00 | |
| AA1-15 | 2026-08-30 12:47:03 | 55.08232 | 19.73570 | 269° | 16km/h | 1961m | 8.2m/s | -43.6°C | 0% | 9.8hPa | 2.3V | 00:00:00 | 00:00:00 | 00:00:00 | |
| AA1-15 | 2026-08-30 12:47:02 | 55.08228 | 19.73576 | 272° | 13km/h | 1953m | 8.2m/s | -43.5°C | 0% | 9.8hPa | 2.3V | 00:00:00 | 00:00:00 | 00:00:00 | |
| AA1-15 | 2026-08-30 12:47:01 | 55.08227 | 19.73583 | 269° | 13km/h | 1943m | 8.4m/s | -43.6°C | 0% | 9.8hPa | 2.3V | 00:00:00 | 00:00:00 | 00:00:00 | |
| AA1-15 | 2026-08-30 12:46:58 | 55.08226 | 19.73607 | 270° | 13km/h | 1909m | 8m/s | -43.5°C | 0% | 9.9hPa | 2.3V | 00:00:00 | 00:00:00 | 00:00:00 | |
| AA1-15 | 2026-08-30 12:46:54 | 55.08231 | 19.73625 | 270° | 16km/h | 1876m | 8m/s | -43.6°C | 0% | 9.9hPa | 2.3V | 00:00:00 | 00:00:00 | 00:00:00 | |
| AA1-15 | 2026-08-30 12:46:52 | 55.08228 | 19.73641 | 270° | 13km/h | 1856m | 8m/s | -43.6°C | 0% | 9.9hPa | 2.3V | 00:00:00 | 00:00:00 | 00:00:00 | |
| AA1-15 | 2026-08-30 12:46:51 | 55.08226 | 19.73648 | 271° | 15km/h | 1846m | 8.2m/s | -43.4°C | 0% | 9.9hPa | 2.3V | 00:00:00 | 00:00:00 | 00:00:00 | |
| AA1-15 | 2026-08-30 12:46:49 | 55.08218 | 19.73672 | 282° | 15km/h | 1822m | 8.3m/s | -43.5°C | 0% | 10hPa | 2.3V | 00:00:00 | 00:00:00 | 00:00:00 | |
| AA1-15 | 2026-08-30 12:46:47 | 55.08221 | 19.73688 | 269° | 15km/h | 1802m | 8.1m/s | -43.5°C | 0% | 9.9hPa | 2.3V | 00:00:00 | 00:00:00 | 00:00:00 | |
| AA1-15 | 2026-08-30 12:46:43 | 55.08212 | 19.73714 | 276° | 15km/h | 1767m | 7.5m/s | -43.4°C | 0% | 10hPa | 2.3V | 00:00:00 | 00:00:00 | 00:00:00 | |
| AA1-15 | 2026-08-30 12:46:25 | 55.08445 | 19.74127 | 169° | 95km/h | 1615m | 8m/s | -43.5°C | 0% | 10.3hPa | 2.3V | 00:00:00 | 00:00:00 | 00:00:00 | |
| AA1-15 | 2026-08-30 12:46:23 | 55.08471 | 19.74117 | 164° | 99km/h | 1608m | 8.3m/s | -43.5°C | 0% | 10.3hPa | 2.3V | 00:00:00 | 00:00:00 | 00:00:00 | |
| AA1-15 | 2026-08-30 12:46:19 | 55.08571 | 19.74035 | 140° | 99km/h | 1585m | 7.9m/s | -43.4°C | 0% | 10.3hPa | 2.3V | 00:00:00 | 00:00:00 | 00:00:00 | |
| AA1-15 | 2026-08-30 12:46:16 | 55.08624 | 19.73938 | 118° | 97km/h | 1569m | 7.9m/s | -43.5°C | 0% | 10.4hPa | 2.3V | 00:00:00 | 00:00:00 | 00:00:00 | |
| AA1-15 | 2026-08-30 12:46:15 | 55.08638 | 19.73900 | 115° | 93km/h | 1562m | 8m/s | -43.5°C | 0% | 10.4hPa | 2.3V | 00:00:00 | 00:00:00 | 00:00:00 | |
| AA1-15 | 2026-08-30 12:46:12 | 55.08662 | 19.73781 | 97° | 99km/h | 1546m | 7.9m/s | -43.6°C | 0% | 10.4hPa | 2.3V | 00:00:00 | 00:00:00 | 00:00:00 | |
| AA1-15 | 2026-08-30 12:46:09 | 55.08671 | 19.73655 | 78° | 99km/h | 1529m | 8.1m/s | -43.7°C | 0% | 10.4hPa | 2.3V | 00:00:00 | 00:00:00 | 00:00:00 | |
| AA1-15 | 2026-08-30 12:46:05 | 55.08652 | 19.73496 | 56° | 97km/h | 1513m | 8m/s | -43.7°C | 0% | 10.5hPa | 2.3V | 00:00:00 | 00:00:00 | 00:00:00 | |
| AA1-15 | 2026-08-30 12:45:58 | 55.08528 | 19.73337 | 11° | 97km/h | 1458m | 8.1m/s | -43.7°C | 0% | 10.6hPa | 2.3V | 00:00:00 | 00:00:00 | 00:00:00 | |
| AA1-15 | 2026-08-30 12:45:48 | 55.08316 | 19.73335 | 0° | 95km/h | 1412m | 8m/s | -44.1°C | 0% | 10.8hPa | 2.3V | 00:00:00 | 00:00:00 | 00:00:00 | |
| AA1-15 | 2026-08-30 12:45:46 | 55.08277 | 19.73336 | 0° | 97km/h | 1398m | 8.1m/s | -44.1°C | 0% | 10.8hPa | 2.3V | 00:00:00 | 00:00:00 | 00:00:00 | |
| AA1-15 | 2026-08-30 12:45:45 | 55.08256 | 19.73336 | 0° | 93km/h | 1390m | 8.1m/s | -44.1°C | 0% | 10.8hPa | 2.3V | 00:00:00 | 00:00:00 | 00:00:00 | |
| AA1-15 | 2026-08-30 12:45:36 | 55.08045 | 19.73314 | 26° | 97km/h | 1283m | 8m/s | -44.2°C | 0% | 10.9hPa | 2.3V | 00:00:00 | 00:00:00 | 00:00:00 | |
| AA1-15 | 2026-08-30 12:45:33 | 55.08002 | 19.73223 | 80° | 97km/h | 1277m | 8.1m/s | -44.4°C | 0% | 10.9hPa | 2.3V | 00:00:00 | 00:00:00 | 00:00:00 | |
| AA1-15 | 2026-08-30 12:45:12 | 55.08173 | 19.73603 | 270° | 99km/h | 1014m | 8.2m/s | -44.6°C | 0% | 11.2hPa | 2.3V | 00:00:00 | 00:00:00 | 00:00:00 | |
| AA1-15 | 2026-08-30 12:45:02 | 55.07975 | 19.73687 | 213° | 99km/h | 684m | 5.5m/s | -44.7°C | 0% | 11.3hPa | 2.4V | 00:00:00 | 00:00:00 | 00:00:00 | |
| AA1-15 | 2026-08-30 12:45:01 | 55.08026 | 19.73614 | 206° | 95km/h | 527m | 6.8m/s | -44.7°C | 0% | 11.4hPa | 2.4V | 00:00:00 | 00:00:00 | 00:00:00 | |
| AA1-15 | 2026-08-30 12:44:55 | 54.91902 | 19.89514 | 191° | 18km/h | 159087m | 7.3m/s | -44.7°C | 0% | 11.4hPa | 2.4V | 00:00:00 | 00:00:00 | 00:00:00 | |
| AA1-15 | 2026-08-30 12:44:44 | 54.91941 | 19.89546 | 272° | 16km/h | 2781m | 8.1m/s | -44.9°C | 0% | 11.6hPa | 2.3V | 00:00:00 | 00:00:00 | 00:00:00 | |
| AA1-15 | 2026-08-30 12:44:33 | 54.91946 | 19.89639 | 271° | 13km/h | 2673m | 8m/s | -45.2°C | 0% | 11.7hPa | 2.3V | 00:00:00 | 00:00:00 | 00:00:00 | |
| AA1-15 | 2026-08-30 12:44:22 | 54.91938 | 19.89758 | 271° | 13km/h | 2574m | 8.3m/s | -45.3°C | 0% | 11.9hPa | 2.4V | 00:00:00 | 00:00:00 | 00:00:00 | |
| AA1-15 | 2026-08-30 12:44:12 | 54.91956 | 19.89778 | 265° | 13km/h | 2509m | 7.7m/s | -45.1°C | 0% | 12hPa | 2.3V | 00:00:00 | 00:00:00 | 00:00:00 | |
| AA1-15 | 2026-08-30 12:44:01 | 54.91975 | 19.89849 | 272° | 13km/h | 2397m | 8m/s | -45.3°C | 0% | 12.1hPa | 2.3V | 00:00:00 | 00:00:00 | 00:00:00 | |
| AA1-15 | 2026-08-30 12:43:50 | 54.91997 | 19.89919 | 271° | 13km/h | 2297m | 7.8m/s | -45.5°C | 0% | 12.3hPa | 2.3V | 00:00:00 | 00:00:00 | 00:00:00 | |
| AA1-15 | 2026-08-30 12:43:39 | 54.92009 | 19.90015 | 271° | 13km/h | 2198m | 9.2m/s | -45.5°C | 0% | 12.5hPa | 2.3V | 00:00:00 | 00:00:00 | 00:00:00 | |
| AA1-15 | 2026-08-30 12:43:28 | 54.91997 | 19.90077 | 271° | 16km/h | 2101m | 8.1m/s | -45.4°C | 0% | 12.7hPa | 2.3V | 00:00:00 | 00:00:00 | 00:00:00 | |
| AA1-15 | 2026-08-30 12:43:17 | 54.92008 | 19.90150 | 273° | 13km/h | 1995m | 8m/s | -45.3°C | 0% | 12.8hPa | 2.4V | 00:00:00 | 00:00:00 | 00:00:00 | |
| AA1-15 | 2026-08-30 12:43:16 | 54.92007 | 19.90156 | 270° | 15km/h | 1982m | 8.1m/s | -45.3°C | 0% | 12.8hPa | 2.4V | 00:00:00 | 00:00:00 | 00:00:00 | |
| AA1-15 | 2026-08-30 12:43:15 | 54.92007 | 19.90162 | 269° | 13km/h | 1971m | 8.1m/s | -45.3°C | 0% | 12.8hPa | 2.3V | 00:00:00 | 00:00:00 | 00:00:00 | |
| AA1-15 | 2026-08-30 12:43:13 | 54.92006 | 19.90174 | 272° | 13km/h | 1949m | 8m/s | -45.3°C | 0% | 12.8hPa | 2.4V | 00:00:00 | 00:00:00 | 00:00:00 | |
| AA1-15 | 2026-08-30 12:43:11 | 54.92004 | 19.90186 | 270° | 16km/h | 1927m | 8m/s | -45.3°C | 0% | 12.9hPa | 2.3V | 00:00:00 | 00:00:00 | 00:00:00 | |
| AA1-15 | 2026-08-30 12:43:07 | 54.92016 | 19.90231 | 274° | 16km/h | 1869m | 7.7m/s | -45.5°C | 0% | 12.9hPa | 2.4V | 00:00:00 | 00:00:00 | 00:00:00 | |
| AA1-15 | 2026-08-30 12:43:00 | 54.92017 | 19.90266 | 270° | 13km/h | 1836m | 7.9m/s | -45.6°C | 0% | 13hPa | 2.4V | 00:00:00 | 00:00:00 | 00:00:00 | |
| AA1-15 | 2026-08-30 12:42:55 | 54.92024 | 19.90292 | 271° | 15km/h | 1798m | 7.9m/s | -45.9°C | 0% | 13.1hPa | 2.4V | 00:00:00 | 00:00:00 | 00:00:00 | |
| AA1-15 | 2026-08-30 12:42:54 | 54.92026 | 19.90296 | 272° | 13km/h | 1789m | 8.2m/s | -45.9°C | 0% | 13.1hPa | 2.4V | 00:00:00 | 00:00:00 | 00:00:00 | |
| AA1-15 | 2026-08-30 12:42:50 | 54.92045 | 19.90286 | 270° | 16km/h | 1757m | 8.6m/s | -46°C | 0% | 13.2hPa | 2.4V | 00:00:00 | 00:00:00 | 00:00:00 | |
| AA1-15 | 2026-08-30 12:42:47 | 54.92020 | 19.90341 | 271° | 13km/h | 1751m | 8.2m/s | -46.1°C | 0% | 13.2hPa | 2.4V | 00:00:00 | 00:00:00 | 00:00:00 | |
| AA1-15 | 2026-08-30 12:42:46 | 54.92019 | 19.90354 | 276° | 13km/h | 1726m | 8.4m/s | -46.2°C | 0% | 13.3hPa | 2.4V | 00:00:00 | 00:00:00 | 00:00:00 | |
| AA1-15 | 2026-08-30 12:42:44 | 54.92018 | 19.90360 | 270° | 15km/h | 1713m | 8.1m/s | -46.3°C | 0% | 13.3hPa | 2.4V | 00:00:00 | 00:00:00 | 00:00:00 | |
| AA1-15 | 2026-08-30 12:42:40 | 54.92018 | 19.90436 | 261° | 93km/h | 1666m | 8.3m/s | -46.4°C | 0% | 13.3hPa | 2.4V | 00:00:00 | 00:00:00 | 00:00:00 | |
| AA1-15 | 2026-08-30 12:42:32 | 54.92128 | 19.90710 | 211° | 99km/h | 1617m | 8m/s | -46.5°C | 0% | 13.5hPa | 2.4V | 00:00:00 | 00:00:00 | 00:00:00 | |
| AA1-15 | 2026-08-30 12:42:29 | 54.92204 | 19.90759 | 193° | 99km/h | 1608m | 8m/s | -46.5°C | 0% | 13.5hPa | 2.4V | 00:00:00 | 00:00:00 | 00:00:00 | |
| AA1-15 | 2026-08-30 12:42:24 | 54.92339 | 19.90759 | 165° | 100km/h | 1582m | 8m/s | -46.7°C | 0% | 13.6hPa | 2.4V | 00:00:00 | 00:00:00 | 00:00:00 | |
| AA1-15 | 2026-08-30 12:42:22 | 54.92391 | 19.90728 | 151° | 93km/h | 1570m | 8m/s | -46.7°C | 0% | 13.6hPa | 2.4V | 00:00:00 | 00:00:00 | 00:00:00 | |
| AA1-15 | 2026-08-30 12:42:19 | 54.92455 | 19.90651 | 131° | 93km/h | 1550m | 8.2m/s | -46.6°C | 0% | 13.7hPa | 2.4V | 00:00:00 | 00:00:00 | 00:00:00 | |
| AA1-15 | 2026-08-30 12:42:07 | 54.92504 | 19.90231 | 70° | 95km/h | 1484m | 8.1m/s | -46.5°C | 0% | 13.8hPa | 2.4V | 00:00:00 | 00:00:00 | 00:00:00 | |
| AA1-15 | 2026-08-30 12:42:01 | 54.92407 | 19.90057 | 24° | 95km/h | 1461m | 8.2m/s | -46.4°C | 0% | 14hPa | 2.4V | 00:00:00 | 00:00:00 | 00:00:00 | |
| AA1-15 | 2026-08-30 12:42:00 | 54.92383 | 19.90045 | 19° | 95km/h | 1455m | 8m/s | -46.5°C | 0% | 13.9hPa | 2.4V | 00:00:00 | 00:00:00 | 00:00:00 | |
| AA1-15 | 2026-08-30 12:41:48 | 54.92142 | 19.90026 | 1° | 91km/h | 1361m | 9.3m/s | -46.5°C | 0% | 14.2hPa | 2.4V | 00:00:00 | 00:00:00 | 00:00:00 | |
| AA1-15 | 2026-08-30 12:41:38 | 54.91915 | 19.90037 | 0° | 95km/h | 1307m | 8.5m/s | -46.7°C | 0% | 14.3hPa | 2.4V | 00:00:00 | 00:00:00 | 00:00:00 | |
| AA1-15 | 2026-08-30 12:41:38 | 54.91893 | 19.90035 | 6° | 97km/h | 1300m | 8m/s | -46.8°C | 0% | 14.3hPa | 2.4V | 00:00:00 | 00:00:00 | 00:00:00 | |
| AA1-15 | 2026-08-30 12:41:32 | 54.91855 | 19.89849 | 116° | 97km/h | 1269m | 8m/s | -47°C | 0% | 14.4hPa | 2.4V | 00:00:00 | 00:00:00 | 00:00:00 | |
| AA1-15 | 2026-08-30 12:41:28 | 54.91958 | 19.89793 | 191° | 91km/h | 1252m | 7.9m/s | -47.1°C | 0% | 14.5hPa | 2.4V | 00:00:00 | 00:00:00 | 00:00:00 | |
| AA1-15 | 2026-08-30 12:41:22 | 54.92049 | 19.89993 | 270° | 95km/h | 1220m | 8.2m/s | -47.2°C | 0% | 14.6hPa | 2.4V | 00:00:00 | 00:00:00 | 00:00:00 | |
| AA1-15 | 2026-08-30 12:41:16 | 54.92049 | 19.90205 | 270° | 97km/h | 1183m | 8m/s | -47.3°C | 0% | 14.7hPa | 2.4V | 00:00:00 | 00:00:00 | 00:00:00 | |
| AA1-15 | 2026-08-30 12:41:14 | 54.92052 | 19.90339 | 270° | 95km/h | 1152m | 8m/s | -47.7°C | 0% | 14.7hPa | 2.4V | 00:00:00 | 00:00:00 | 00:00:00 | |
| AA1-15 | 2026-08-30 12:41:11 | 54.92057 | 19.90485 | 270° | 95km/h | 1129m | 8m/s | -47.7°C | 0% | 14.8hPa | 2.4V | 00:00:00 | 00:00:00 | 00:00:00 | |
| AA1-15 | 2026-08-30 12:41:08 | 54.92281 | 19.90738 | 258° | 95km/h | 1536m | 8.1m/s | -47.8°C | 0% | 14.9hPa | 2.4V | 00:00:00 | 00:00:00 | 00:00:00 | |
| AA1-15 | 2026-08-30 12:40:22 | 54.88322 | 20.04068 | 1° | 16km/h | 3131m | 8m/s | -48.8°C | 0% | 15.7hPa | 2.4V | 00:00:00 | 00:00:00 | 00:00:00 | |
| AA1-15 | 2026-08-30 12:40:10 | 54.88330 | 20.04130 | 0° | 11km/h | 3065m | 8.1m/s | -49.4°C | 0% | 15.9hPa | 2.4V | 00:00:00 | 00:00:00 | 00:00:00 | |
| AA1-15 | 2026-08-30 12:39:58 | 54.88271 | 20.04189 | 1° | 9km/h | 159087m | 8.1m/s | -49.7°C | 0% | 16.1hPa | 2.4V | 00:00:00 | 00:00:00 | 00:00:00 | |
| AA1-15 | 2026-08-30 12:39:47 | 54.88227 | 20.04186 | 0° | 16km/h | 2897m | 8m/s | -50°C | 0% | 16.3hPa | 2.4V | 00:00:00 | 00:00:00 | 00:00:00 | |
| AA1-15 | 2026-08-30 12:39:37 | 54.88212 | 20.04174 | 0° | 16km/h | 2783m | 7.9m/s | -50°C | 0% | 16.4hPa | 2.4V | 00:00:00 | 00:00:00 | 00:00:00 | |
| AA1-15 | 2026-08-30 12:39:13 | 54.88285 | 20.04125 | 360° | 9km/h | 2299m | 8.6m/s | -49.9°C | 0% | 16.9hPa | 2.4V | 00:00:00 | 00:00:00 | 00:00:00 | |
| AA1-15 | 2026-08-30 12:39:03 | 54.88211 | 20.04135 | 360° | 16km/h | 2223m | 7.9m/s | -50°C | 0% | 17.1hPa | 2.4V | 00:00:00 | 00:00:00 | 00:00:00 | |
| AA1-15 | 2026-08-30 12:38:52 | 54.88166 | 20.04114 | 0° | 16km/h | 2103m | 8m/s | -50.2°C | 0% | 17.3hPa | 2.4V | 00:00:00 | 00:00:00 | 00:00:00 | |
| AA1-15 | 2026-08-30 12:38:41 | 54.88053 | 20.04109 | 357° | 100km/h | 1996m | 8.1m/s | -50.1°C | 0% | 17.5hPa | 2.4V | 00:00:00 | 00:00:00 | 00:00:00 | |
| AA1-15 | 2026-08-30 12:38:36 | 54.87948 | 20.04122 | 352° | 95km/h | 1959m | 8.1m/s | -50.1°C | 0% | 17.6hPa | 2.4V | 00:00:00 | 00:00:00 | 00:00:00 | |
| AA1-15 | 2026-08-30 12:38:35 | 54.87922 | 20.04129 | 349° | 95km/h | 1952m | 8.5m/s | -50.1°C | 0% | 17.6hPa | 2.4V | 00:00:00 | 00:00:00 | 00:00:00 | |
| AA1-15 | 2026-08-30 12:38:33 | 54.87876 | 20.04147 | 346° | 97km/h | 1945m | 8.3m/s | -50.1°C | 0% | 17.6hPa | 2.4V | 00:00:00 | 00:00:00 | 00:00:00 | |
| AA1-15 | 2026-08-30 12:38:27 | 54.87703 | 20.04245 | 334° | 97km/h | 1920m | 8.1m/s | -50.1°C | 0% | 17.7hPa | 2.4V | 00:00:00 | 00:00:00 | 00:00:00 | |
| AA1-15 | 2026-08-30 12:38:11 | 54.87418 | 20.04656 | 314° | 99km/h | 1790m | 8.2m/s | -49.9°C | 0% | 18hPa | 2.4V | 00:00:00 | 00:00:00 | 00:00:00 | |
| AA1-15 | 2026-08-30 12:38:05 | 54.87372 | 20.04838 | 303° | 95km/h | 1753m | 8.1m/s | -49.7°C | 0% | 18.1hPa | 2.4V | 00:00:00 | 00:00:00 | 00:00:00 | |
| AA1-15 | 2026-08-30 12:38:03 | 54.87347 | 20.04910 | 302° | 100km/h | 1741m | 8m/s | -49.7°C | 0% | 18.2hPa | 2.4V | 00:00:00 | 00:00:00 | 00:00:00 | |
| AA1-15 | 2026-08-30 12:37:56 | 54.87277 | 20.05175 | 288° | 97km/h | 1696m | 8.1m/s | -49.7°C | 0% | 18.4hPa | 2.4V | 00:00:00 | 00:00:00 | 00:00:00 | |
| AA1-15 | 2026-08-30 12:37:55 | 54.87269 | 20.05215 | 288° | 95km/h | 1689m | 8m/s | -49.7°C | 0% | 18.4hPa | 2.4V | 00:00:00 | 00:00:00 | 00:00:00 | |
| AA1-15 | 2026-08-30 12:37:52 | 54.87251 | 20.05334 | 281° | 95km/h | 1671m | 8.1m/s | -49.7°C | 0% | 18.4hPa | 2.4V | 00:00:00 | 00:00:00 | 00:00:00 | |
| AA1-15 | 2026-08-30 12:37:48 | 54.87236 | 20.05493 | 277° | 97km/h | 1645m | 8.2m/s | -49.6°C | 0% | 18.5hPa | 2.4V | 00:00:00 | 00:00:00 | 00:00:00 | |
| AA1-15 | 2026-08-30 12:37:44 | 54.87229 | 20.05655 | 270° | 95km/h | 1617m | 8.1m/s | -49.6°C | 0% | 18.6hPa | 2.4V | 00:00:00 | 00:00:00 | 00:00:00 | |
| AA1-15 | 2026-08-30 12:37:38 | 54.87242 | 20.05854 | 261° | 97km/h | 1568m | 8.2m/s | -49.7°C | 0% | 18.7hPa | 2.4V | 00:00:00 | 00:00:00 | 00:00:00 | |
| AA1-15 | 2026-08-30 12:37:36 | 54.87260 | 20.05975 | 256° | 97km/h | 1549m | 8.2m/s | -49.6°C | 0% | 18.8hPa | 2.4V | 00:00:00 | 00:00:00 | 00:00:00 | |
| AA1-15 | 2026-08-30 12:37:35 | 54.87266 | 20.06017 | 252° | 95km/h | 1543m | 8.1m/s | -49.7°C | 0% | 18.8hPa | 2.4V | 00:00:00 | 00:00:00 | 00:00:00 | |
| AA1-15 | 2026-08-30 12:37:33 | 54.87274 | 20.06058 | 249° | 97km/h | 1537m | 8.1m/s | -49.7°C | 0% | 18.8hPa | 2.4V | 00:00:00 | 00:00:00 | 00:00:00 | |
| AA1-15 | 2026-08-30 12:37:29 | 54.87306 | 20.06224 | 249° | 93km/h | 1513m | 7.9m/s | -49.8°C | 0% | 18.9hPa | 2.4V | 00:00:00 | 00:00:00 | 00:00:00 | |
| AA1-15 | 2026-08-30 12:37:28 | 54.87317 | 20.06272 | 246° | 95km/h | 1511m | 8.2m/s | -49.8°C | 0% | 18.9hPa | 2.4V | 00:00:00 | 00:00:00 | 00:00:00 | |
| AA1-15 | 2026-08-30 12:37:25 | 54.87342 | 20.06428 | 240° | 93km/h | 1499m | 8.1m/s | -49.9°C | 0% | 18.9hPa | 2.4V | 00:00:00 | 00:00:00 | 00:00:00 | |
| AA1-15 | 2026-08-30 12:37:23 | 54.87368 | 20.06501 | 238° | 93km/h | 1479m | 7.6m/s | -49.9°C | 0% | 19hPa | 2.4V | 00:00:00 | 00:00:00 | 00:00:00 | |
| AA1-15 | 2026-08-30 12:37:22 | 54.87396 | 20.06571 | 232° | 99km/h | 1458m | 7.7m/s | -49.9°C | 0% | 19hPa | 2.4V | 00:00:00 | 00:00:00 | 00:00:00 | |
| AA1-15 | 2026-08-30 12:37:21 | 54.87411 | 20.06606 | 235° | 91km/h | 1448m | 8m/s | -49.9°C | 0% | 19.1hPa | 2.4V | 00:00:00 | 00:00:00 | 00:00:00 | |
| AA1-15 | 2026-08-30 12:37:17 | 54.87456 | 20.06706 | 226° | 99km/h | 1418m | 8.6m/s | -49.9°C | 0% | 19.1hPa | 2.4V | 00:00:00 | 00:00:00 | 00:00:00 | |
| AA1-15 | 2026-08-30 12:37:16 | 54.87489 | 20.06769 | 224° | 100km/h | 1399m | 8.1m/s | -49.8°C | 0% | 19.2hPa | 2.4V | 00:00:00 | 00:00:00 | 00:00:00 | |
| AA1-15 | 2026-08-30 12:37:13 | 54.87538 | 20.06859 | 218° | 100km/h | 1370m | 8.6m/s | -49.8°C | 0% | 19.2hPa | 2.4V | 00:00:00 | 00:00:00 | 00:00:00 | |
| AA1-15 | 2026-08-30 12:37:10 | 54.87565 | 20.06915 | 216° | 100km/h | 1349m | 10.2m/s | -49.8°C | 0% | 19.3hPa | 2.4V | 00:00:00 | 00:00:00 | 00:00:00 | |
| AA1-15 | 2026-08-30 12:37:02 | 54.87781 | 20.07077 | 202° | 99km/h | 1188m | 8.1m/s | -49.9°C | 0% | 19.4hPa | 2.4V | 00:00:00 | 00:00:00 | 00:00:00 | |
| AA1-15 | 2026-08-30 12:36:59 | 54.87829 | 20.07106 | 200° | 97km/h | 1169m | 8m/s | -50°C | 0% | 19.4hPa | 2.4V | 00:00:00 | 00:00:00 | 00:00:00 | |
| AA1-15 | 2026-08-30 12:36:56 | 54.87904 | 20.07141 | 195° | 100km/h | 1138m | 8.2m/s | -50.1°C | 0% | 19.5hPa | 2.4V | 00:00:00 | 00:00:00 | 00:00:00 | |
| AA1-15 | 2026-08-30 12:36:45 | 54.88171 | 20.07180 | 177° | 97km/h | 1024m | 8.2m/s | -50.7°C | 0% | 19.7hPa | 2.4V | 00:00:00 | 00:00:00 | 00:00:00 | |
| AA1-15 | 2026-08-30 12:36:34 | 54.88436 | 20.07073 | 160° | 97km/h | 934m | 7.9m/s | -51.1°C | 0% | 20hPa | 2.4V | 00:00:00 | 00:00:00 | 00:00:00 | |
| AA1-15 | 2026-08-30 12:36:30 | 54.88528 | 20.07001 | 152° | 99km/h | 906m | 8m/s | -51.1°C | 0% | 20.1hPa | 2.4V | 00:00:00 | 00:00:00 | 00:00:00 | |
| AA1-15 | 2026-08-30 12:36:29 | 54.88550 | 20.06978 | 150° | 97km/h | 899m | 7.9m/s | -51.3°C | 0% | 20.1hPa | 2.4V | 00:00:00 | 00:00:00 | 00:00:00 | |
| AA1-15 | 2026-08-30 12:36:23 | 54.88667 | 20.06834 | 141° | 99km/h | 866m | 8.1m/s | -51.6°C | 0% | 20.2hPa | 2.4V | 00:00:00 | 00:00:00 | 00:00:00 | |
| AA1-15 | 2026-08-30 12:36:15 | 54.88779 | 20.06619 | 131° | 97km/h | 817m | 8m/s | -51.6°C | 0% | 20.4hPa | 2.4V | 00:00:00 | 00:00:00 | 00:00:00 | |
| AA1-15 | 2026-08-30 12:36:13 | 54.88812 | 20.06561 | 129° | 95km/h | 806m | 7.9m/s | -51.5°C | 0% | 20.4hPa | 2.4V | 00:00:00 | 00:00:00 | 00:00:00 | |
| AA1-15 | 2026-08-30 12:36:10 | 54.88853 | 20.06455 | 122° | 97km/h | 788m | 8m/s | -51.5°C | 0% | 20.5hPa | 2.4V | 00:00:00 | 00:00:00 | 00:00:00 | |
| AA1-15 | 2026-08-30 12:36:09 | 54.88865 | 20.06420 | 120° | 93km/h | 782m | 8.2m/s | -51.5°C | 0% | 20.5hPa | 2.4V | 00:00:00 | 00:00:00 | 00:00:00 | |
| AA1-15 | 2026-08-30 12:35:59 | 54.88965 | 20.06089 | 103° | 97km/h | 679m | 8m/s | -51.4°C | 0% | 20.7hPa | 2.4V | 00:00:00 | 00:00:00 | 00:00:00 | |
| AA1-15 | 2026-08-30 12:35:55 | 54.88992 | 20.05924 | 100° | 93km/h | 636m | 8.2m/s | -51.3°C | 0% | 20.9hPa | 2.4V | 00:00:00 | 00:00:00 | 00:00:00 | |
| AA1-15 | 2026-08-30 12:35:54 | 54.89001 | 20.05878 | 98° | 97km/h | 624m | 8.3m/s | -51.4°C | 0% | 20.9hPa | 2.4V | 00:00:00 | 00:00:00 | 00:00:00 | |
| AA1-15 | 2026-08-30 12:35:52 | 54.89002 | 20.05789 | 92° | 95km/h | 606m | 8.5m/s | -51.4°C | 0% | 20.9hPa | 2.4V | 00:00:00 | 00:00:00 | 00:00:00 | |
| AA1-15 | 2026-08-30 12:35:47 | 54.88982 | 20.05546 | 85° | 95km/h | 581m | 7.7m/s | -51.5°C | 0% | 21hPa | 2.4V | 00:00:00 | 00:00:00 | 00:00:00 | |
| AA1-15 | 2026-08-30 12:35:44 | 54.88971 | 20.05465 | 84° | 93km/h | 570m | 8.1m/s | -51.5°C | 0% | 21.1hPa | 2.4V | 00:00:00 | 00:00:00 | 00:00:00 | |
| AA1-15 | 2026-08-30 12:35:42 | 54.88958 | 20.05384 | 78° | 95km/h | 557m | 8.1m/s | -51.5°C | 0% | 21.1hPa | 2.4V | 00:00:00 | 00:00:00 | 00:00:00 | |
| AA1-15 | 2026-08-30 12:35:37 | 54.88907 | 20.05146 | 72° | 97km/h | 514m | 8m/s | -51.4°C | 0% | 21.3hPa | 2.4V | 00:00:00 | 00:00:00 | 00:00:00 | |
| AA1-15 | 2026-08-30 12:35:35 | 54.88896 | 20.05107 | 65° | 99km/h | 505m | 8.1m/s | -51.4°C | 0% | 21.3hPa | 2.4V | 00:00:00 | 00:00:00 | 00:00:00 | |
| AA1-15 | 2026-08-30 12:35:33 | 54.88865 | 20.05030 | 67° | 97km/h | 485m | 8.1m/s | -51.4°C | 0% | 21.3hPa | 2.4V | 00:00:00 | 00:00:00 | 00:00:00 | |
| AA1-15 | 2026-08-30 12:35:31 | 54.88840 | 20.04966 | 60° | 97km/h | 474m | 8.6m/s | -51.4°C | 0% | 21.4hPa | 2.4V | 00:00:00 | 00:00:00 | 00:00:00 | |
| AA1-15 | 2026-08-30 12:35:29 | 54.88818 | 20.04909 | 57° | 97km/h | 473m | 7.8m/s | -51.3°C | 0% | 21.4hPa | 2.4V | 00:00:00 | 00:00:00 | 00:00:00 | |
| AA1-15 | 2026-08-30 12:35:28 | 54.88803 | 20.04876 | 58° | 93km/h | 466m | 8.1m/s | -51.4°C | 0% | 21.5hPa | 2.4V | 00:00:00 | 00:00:00 | 00:00:00 | |
| AA1-15 | 2026-08-30 12:35:26 | 54.88749 | 20.04780 | 54° | 99km/h | 447m | 8.6m/s | -51.3°C | 0% | 21.6hPa | 2.4V | 00:00:00 | 00:00:00 | 00:00:00 | |
| AA1-15 | 2026-08-30 12:35:25 | 54.88731 | 20.04746 | 60° | 100km/h | 440m | 14.7m/s | -51.2°C | 0% | 21.6hPa | 2.4V | 00:00:00 | 00:00:00 | 00:00:00 | |
| AA1-15 | 2026-08-30 12:35:22 | 54.88698 | 20.04678 | 46° | 99km/h | 424m | 8m/s | -51.2°C | 0% | 21.6hPa | 2.4V | 00:00:00 | 00:00:00 | 00:00:00 | |
| AA1-15 | 2026-08-30 12:35:18 | 54.88630 | 20.04553 | 41° | 93km/h | 386m | 8.1m/s | -51.2°C | 0% | 21.7hPa | 2.4V | 00:00:00 | 00:00:00 | 00:00:00 | |
| AA1-15 | 2026-08-30 12:35:17 | 54.88613 | 20.04521 | 38° | 95km/h | 374m | 8.2m/s | -51.2°C | 0% | 21.7hPa | 2.4V | 00:00:00 | 00:00:00 | 00:00:00 | |
| AA1-15 | 2026-08-30 12:35:16 | 54.88596 | 20.04492 | 39° | 95km/h | 362m | 8m/s | -51.1°C | 0% | 21.7hPa | 2.4V | 00:00:00 | 00:00:00 | 00:00:00 | |
| AA1-15 | 2026-08-30 12:35:15 | 54.88562 | 20.04434 | 35° | 97km/h | 336m | 8m/s | -51.2°C | 0% | 21.8hPa | 2.4V | 00:00:00 | 00:00:00 | 00:00:00 | |
| AA1-15 | 2026-08-30 12:35:13 | 54.88545 | 20.04403 | 32° | 100km/h | 320m | 8m/s | -51.1°C | 0% | 21.8hPa | 2.4V | 00:00:00 | 00:00:00 | 00:00:00 | |
| AA1-15 | 2026-08-30 12:35:12 | 54.88556 | 20.04269 | 30° | 95km/h | 226m | 7.9m/s | -51.1°C | 0% | 21.8hPa | 2.4V | 00:00:00 | 00:00:00 | 00:00:00 | |
| AA1-15 | 2026-08-30 12:35:09 | 54.88436 | 20.04171 | 21° | 120km/h | 294m | 2.7m/s | -51.1°C | 0% | 21.9hPa | 2.4V | 00:00:00 | 00:00:00 | 00:00:00 | |
| AA1-15 | 2026-08-30 12:34:58 | 54.95190 | 19.26157 | 0° | 0km/h | 159087m | 0m/s | -50.9°C | 0% | 22.1hPa | 2.3V | 00:00:00 | 00:00:00 | 00:00:00 | |
| AA1-15 | 2026-08-30 12:34:48 | 54.95190 | 19.26185 | 270° | 13km/h | 159087m | 8.2m/s | -50.8°C | 0% | 22.3hPa | 2.3V | 00:00:00 | 00:00:00 | 00:00:00 | |
| AA1-15 | 2026-08-30 12:34:37 | 54.95188 | 19.26246 | 270° | 13km/h | 2429m | 8.1m/s | -50.8°C | 0% | 22.5hPa | 2.3V | 00:00:00 | 00:00:00 | 00:00:00 | |
| AA1-15 | 2026-08-30 12:34:26 | 54.95184 | 19.26324 | 270° | 16km/h | 2384m | 7.7m/s | -50.9°C | 0% | 22.8hPa | 2.3V | 00:00:00 | 00:00:00 | 00:00:00 | |
| AA1-15 | 2026-08-30 12:34:17 | 54.95192 | 19.26405 | 269° | 13km/h | 2352m | 8.1m/s | -50.8°C | 0% | 23hPa | 2.2V | 00:00:00 | 00:00:00 | 00:00:00 | |
| AA1-15 | 2026-08-30 12:34:06 | 54.95191 | 19.26471 | 270° | 16km/h | 2253m | 8m/s | -50.8°C | 0% | 23.2hPa | 2.2V | 00:00:00 | 00:00:00 | 00:00:00 | |
| AA1-15 | 2026-08-30 12:33:54 | 54.95208 | 19.26525 | 271° | 16km/h | 159087m | 7.8m/s | -51.1°C | 0% | 23.5hPa | 2.2V | 00:00:00 | 00:00:00 | 00:00:00 | |
| AA1-15 | 2026-08-30 12:33:44 | 54.95230 | 19.26620 | 269° | 13km/h | 159087m | 8.4m/s | -51.3°C | 0% | 23.7hPa | 2.2V | 00:00:00 | 00:00:00 | 00:00:00 | |
| AA1-15 | 2026-08-30 12:33:34 | 54.95201 | 19.26682 | 271° | 13km/h | 1989m | 8.3m/s | -51.8°C | 0% | 23.9hPa | 2.2V | 00:00:00 | 00:00:00 | 00:00:00 | |
| AA1-15 | 2026-08-30 12:33:32 | 54.95196 | 19.26693 | 273° | 13km/h | 1964m | 8.4m/s | -51.8°C | 0% | 24hPa | 2.2V | 00:00:00 | 00:00:00 | 00:00:00 | |
| AA1-15 | 2026-08-30 12:33:26 | 54.95187 | 19.26727 | 270° | 16km/h | 1892m | 8.1m/s | -52°C | 0% | 24.1hPa | 2.2V | 00:00:00 | 00:00:00 | 00:00:00 | |
| AA1-15 | 2026-08-30 12:33:25 | 54.95185 | 19.26733 | 271° | 13km/h | 1879m | 8m/s | -52°C | 0% | 24.2hPa | 2.2V | 00:00:00 | 00:00:00 | 00:00:00 | |
| AA1-15 | 2026-08-30 12:33:22 | 54.95185 | 19.26743 | 269° | 13km/h | 1857m | 8.1m/s | -52°C | 0% | 24.2hPa | 2.2V | 00:00:00 | 00:00:00 | 00:00:00 | |
| AA1-15 | 2026-08-30 12:33:20 | 54.95185 | 19.26752 | 270° | 13km/h | 1834m | 8.3m/s | -52.1°C | 0% | 24.2hPa | 2.2V | 00:00:00 | 00:00:00 | 00:00:00 | |
| AA1-15 | 2026-08-30 12:33:18 | 54.95185 | 19.26759 | 271° | 16km/h | 1811m | 8.1m/s | -52.1°C | 0% | 24.3hPa | 2.2V | 00:00:00 | 00:00:00 | 00:00:00 | |
| AA1-15 | 2026-08-30 12:33:17 | 54.95186 | 19.26773 | 270° | 13km/h | 1782m | 7.9m/s | -52.2°C | 0% | 24.4hPa | 2.2V | 00:00:00 | 00:00:00 | 00:00:00 | |
| AA1-15 | 2026-08-30 12:33:13 | 54.95186 | 19.26782 | 270° | 16km/h | 1761m | 8m/s | -52.2°C | 0% | 24.4hPa | 2.2V | 00:00:00 | 00:00:00 | 00:00:00 | |
| AA1-15 | 2026-08-30 12:33:11 | 54.95185 | 19.26794 | 269° | 16km/h | 1739m | 8.2m/s | -52.3°C | 0% | 24.4hPa | 2.2V | 00:00:00 | 00:00:00 | 00:00:00 | |
| AA1-15 | 2026-08-30 12:33:07 | 54.95185 | 19.26820 | 271° | 15km/h | 1711m | 8m/s | -52.4°C | 0% | 24.6hPa | 2.2V | 00:00:00 | 00:00:00 | 00:00:00 | |
| AA1-15 | 2026-08-30 12:33:05 | 54.95185 | 19.26836 | 270° | 16km/h | 1687m | 8m/s | -52.4°C | 0% | 24.6hPa | 2.2V | 00:00:00 | 00:00:00 | 00:00:00 | |
| AA1-15 | 2026-08-30 12:33:02 | 54.95186 | 19.26844 | 270° | 15km/h | 1674m | 8m/s | -52.4°C | 0% | 24.6hPa | 2.2V | 00:00:00 | 00:00:00 | 00:00:00 | |
| AA1-15 | 2026-08-30 12:33:00 | 54.95186 | 19.26854 | 275° | 15km/h | 1660m | 4m/s | -52.4°C | 0% | 24.7hPa | 2.2V | 00:00:00 | 00:00:00 | 00:00:00 | |
| AA1-15 | 2026-08-30 12:32:57 | 54.95187 | 19.26886 | 270° | 13km/h | 1685m | 8m/s | -52.5°C | 0% | 24.8hPa | 2.2V | 00:00:00 | 00:00:00 | 00:00:00 | |
| AA1-15 | 2026-08-30 12:32:53 | 54.95189 | 19.26906 | 269° | 13km/h | 1679m | 8.2m/s | -52.6°C | 0% | 24.9hPa | 2.2V | 00:00:00 | 00:00:00 | 00:00:00 | |
| AA1-15 | 2026-08-30 12:32:49 | 54.95189 | 19.26924 | 270° | 13km/h | 1644m | 7.9m/s | -52.5°C | 0% | 25hPa | 2.2V | 00:00:00 | 00:00:00 | 00:00:00 | |
| AA1-15 | 2026-08-30 12:32:44 | 54.95192 | 19.26962 | 270° | 16km/h | 1639m | 8.1m/s | -52.5°C | 0% | 25.1hPa | 2.2V | 00:00:00 | 00:00:00 | 00:00:00 | |
| AA1-15 | 2026-08-30 12:32:41 | 54.95192 | 19.26976 | 268° | 15km/h | 1632m | 6.7m/s | -52.6°C | 0% | 25.2hPa | 2.2V | 00:00:00 | 00:00:00 | 00:00:00 | |
| AA1-15 | 2026-08-30 12:32:36 | 54.95214 | 19.27161 | 248° | 95km/h | 1607m | 7.9m/s | -52.6°C | 0% | 25.3hPa | 2.2V | 00:00:00 | 00:00:00 | 00:00:00 | |
| AA1-15 | 2026-08-30 12:32:32 | 54.95289 | 19.27325 | 221° | 97km/h | 1580m | 7.9m/s | -52.7°C | 0% | 25.4hPa | 2.2V | 00:00:00 | 00:00:00 | 00:00:00 | |
| AA1-15 | 2026-08-30 12:32:29 | 54.95338 | 19.27386 | 208° | 93km/h | 1576m | 7.9m/s | -52.7°C | 0% | 25.4hPa | 2.2V | 00:00:00 | 00:00:00 | 00:00:00 | |
| AA1-15 | 2026-08-30 12:32:24 | 54.95517 | 19.27458 | 164° | 100km/h | 1515m | 8.2m/s | -52.7°C | 0% | 25.6hPa | 2.2V | 00:00:00 | 00:00:00 | 00:00:00 | |
| AA1-15 | 2026-08-30 12:32:23 | 54.95539 | 19.27440 | 157° | 100km/h | 1503m | 8.2m/s | -52.7°C | 0% | 25.6hPa | 2.2V | 00:00:00 | 00:00:00 | 00:00:00 | |
| AA1-15 | 2026-08-30 12:32:19 | 54.95576 | 19.27386 | 145° | 97km/h | 1479m | 8.3m/s | -52.8°C | 0% | 25.7hPa | 2.2V | 00:00:00 | 00:00:00 | 00:00:00 | |
| AA1-15 | 2026-08-30 12:32:18 | 54.95608 | 19.27326 | 131° | 93km/h | 1459m | 8.2m/s | -52.7°C | 0% | 25.7hPa | 2.2V | 00:00:00 | 00:00:00 | 00:00:00 | |
| AA1-15 | 2026-08-30 12:32:12 | 54.95661 | 19.27141 | 105° | 100km/h | 1434m | 8m/s | -52.7°C | 0% | 25.9hPa | 2.2V | 00:00:00 | 00:00:00 | 00:00:00 | |
| AA1-15 | 2026-08-30 12:32:09 | 54.95667 | 19.27012 | 86° | 95km/h | 1415m | 8.1m/s | -52.7°C | 0% | 26hPa | 2.2V | 00:00:00 | 00:00:00 | 00:00:00 | |
| AA1-15 | 2026-08-30 12:32:06 | 54.95649 | 19.26886 | 69° | 91km/h | 1397m | 8.3m/s | -52.8°C | 0% | 26.1hPa | 2.2V | 00:00:00 | 00:00:00 | 00:00:00 | |
| AA1-15 | 2026-08-30 12:32:03 | 54.95546 | 19.26680 | 30° | 97km/h | 1372m | 8.1m/s | -52.8°C | 0% | 26.2hPa | 2.2V | 00:00:00 | 00:00:00 | 00:00:00 | |
| AA1-15 | 2026-08-30 12:32:01 | 54.95524 | 19.26660 | 24° | 95km/h | 1370m | 8.1m/s | -52.8°C | 0% | 26.3hPa | 2.2V | 00:00:00 | 00:00:00 | 00:00:00 | |
| AA1-15 | 2026-08-30 12:31:59 | 54.95500 | 19.26644 | 19° | 95km/h | 1370m | 8.1m/s | -52.8°C | 0% | 26.3hPa | 2.2V | 00:00:00 | 00:00:00 | 00:00:00 | |
| AA1-15 | 2026-08-30 12:31:56 | 54.95451 | 19.26626 | 6° | 97km/h | 1371m | 7.4m/s | -52.8°C | 0% | 26.3hPa | 2.2V | 00:00:00 | 00:00:00 | 00:00:00 | |
| AA1-15 | 2026-08-30 12:31:55 | 54.95403 | 19.26619 | 0° | 95km/h | 1365m | 7.9m/s | -52.9°C | 0% | 26.4hPa | 2.2V | 00:00:00 | 00:00:00 | 00:00:00 | |
| AA1-15 | 2026-08-30 12:31:53 | 54.95378 | 19.26617 | 0° | 100km/h | 1358m | 8m/s | -52.9°C | 0% | 26.4hPa | 2.2V | 00:00:00 | 00:00:00 | 00:00:00 | |
| AA1-15 | 2026-08-30 12:31:52 | 54.95328 | 19.26612 | 0° | 100km/h | 1343m | 7.5m/s | -52.9°C | 0% | 26.4hPa | 2.2V | 00:00:00 | 00:00:00 | 00:00:00 | |
| AA1-15 | 2026-08-30 12:31:50 | 54.95276 | 19.26617 | 1° | 100km/h | 1319m | 7.7m/s | -52.9°C | 0% | 26.5hPa | 2.2V | 00:00:00 | 00:00:00 | 00:00:00 | |
| AA1-15 | 2026-08-30 12:31:47 | 54.95223 | 19.26622 | 0° | 95km/h | 1291m | 8.1m/s | -52.9°C | 0% | 26.6hPa | 2.2V | 00:00:00 | 00:00:00 | 00:00:00 | |
| AA1-15 | 2026-08-30 12:31:45 | 54.95175 | 19.26621 | 0° | 95km/h | 1274m | 7.5m/s | -52.9°C | 0% | 26.6hPa | 2.2V | 00:00:00 | 00:00:00 | 00:00:00 | |
| AA1-15 | 2026-08-30 12:31:44 | 54.95153 | 19.26621 | 0° | 91km/h | 1271m | 6.6m/s | -52.9°C | 0% | 26.6hPa | 2.2V | 00:00:00 | 00:00:00 | 00:00:00 | |
| AA1-15 | 2026-08-30 12:31:41 | 54.95035 | 19.26621 | 0° | 95km/h | 1274m | 7.9m/s | -52.9°C | 0% | 26.8hPa | 2.1V | 00:00:00 | 00:00:00 | 00:00:00 | |
| AA1-15 | 2026-08-30 12:31:40 | 54.95011 | 19.26622 | 0° | 100km/h | 1273m | 7.9m/s | -52.8°C | 0% | 26.8hPa | 2.1V | 00:00:00 | 00:00:00 | 00:00:00 | |
| AA1-15 | 2026-08-30 12:31:38 | 54.94986 | 19.26624 | 360° | 93km/h | 1273m | 7.8m/s | -52.8°C | 0% | 26.9hPa | 2.2V | 00:00:00 | 00:00:00 | 00:00:00 | |
| AA1-15 | 2026-08-30 12:31:35 | 54.94939 | 19.26609 | 26° | 99km/h | 1268m | 7.7m/s | -52.9°C | 0% | 26.9hPa | 2.1V | 00:00:00 | 00:00:00 | 00:00:00 | |
| AA1-15 | 2026-08-30 12:31:35 | 54.94918 | 19.26586 | 43° | 100km/h | 1273m | 7.9m/s | -52.8°C | 0% | 26.9hPa | 2.1V | 00:00:00 | 00:00:00 | 00:00:00 | |
| AA1-15 | 2026-08-30 12:31:31 | 54.94894 | 19.26477 | 100° | 93km/h | 1281m | 7.5m/s | -52.9°C | 0% | 27hPa | 2.1V | 00:00:00 | 00:00:00 | 00:00:00 | |
| AA1-15 | 2026-08-30 12:31:30 | 54.94915 | 19.26410 | 133° | 95km/h | 1292m | 8.1m/s | -52.9°C | 0% | 27.1hPa | 2.2V | 00:00:00 | 00:00:00 | 00:00:00 | |
| AA1-15 | 2026-08-30 12:31:28 | 54.94955 | 19.26377 | 169° | 97km/h | 1292m | 8.2m/s | -52.9°C | 0% | 27.1hPa | 2.2V | 00:00:00 | 00:00:00 | 00:00:00 | |
| AA1-15 | 2026-08-30 12:31:27 | 54.94978 | 19.26379 | 189° | 89km/h | 1298m | 8m/s | -52.9°C | 0% | 27.1hPa | 2.2V | 00:00:00 | 00:00:00 | 00:00:00 | |
| AA1-15 | 2026-08-30 12:31:25 | 54.95000 | 19.26396 | 206° | 100km/h | 1308m | 7.5m/s | -52.9°C | 0% | 27.2hPa | 2.2V | 00:00:00 | 00:00:00 | 00:00:00 | |
| AA1-15 | 2026-08-30 12:31:24 | 54.95019 | 19.26429 | 224° | 97km/h | 1327m | 6.7m/s | -52.9°C | 0% | 27.2hPa | 2.2V | 00:00:00 | 00:00:00 | 00:00:00 | |
| AA1-15 | 2026-08-30 12:31:22 | 54.95044 | 19.26555 | 270° | 95km/h | 1347m | 8m/s | -52.8°C | 0% | 27.3hPa | 2.2V | 00:00:00 | 00:00:00 | 00:00:00 | |
| AA1-15 | 2026-08-30 12:31:20 | 54.95035 | 19.26711 | 270° | 100km/h | 1444m | 7.7m/s | -52.8°C | 0% | 27.3hPa | 2.2V | 00:00:00 | 00:00:00 | 00:00:00 | |
| AA1-15 | 2026-08-30 12:31:15 | 54.95027 | 19.26908 | 269° | 93km/h | 1506m | 8.2m/s | -52.7°C | 0% | 27.5hPa | 2.1V | 00:00:00 | 00:00:00 | 00:00:00 | |
| AA1-15 | 2026-08-30 12:31:13 | 54.95040 | 19.27036 | 270° | 100km/h | 1445m | 7.8m/s | -52.7°C | 0% | 27.5hPa | 2.2V | 00:00:00 | 00:00:00 | 00:00:00 | |
| AA1-15 | 2026-08-30 12:31:06 | 54.95213 | 19.27384 | 256° | 93km/h | 1537m | 7.9m/s | -52.5°C | 0% | 27.7hPa | 2.2V | 00:00:00 | 00:00:00 | 00:00:00 | |
| AA1-15 | 2026-08-30 12:31:03 | 54.95292 | 19.27527 | 237° | 95km/h | 1678m | 7.9m/s | -52.6°C | 0% | 27.8hPa | 2.1V | 00:00:00 | 00:00:00 | 00:00:00 | |
| AA1-15 | 2026-08-30 12:30:56 | 55.08311 | 19.72887 | 0° | 0km/h | 159087m | 0m/s | -52.5°C | 0% | 27.9hPa | 2.1V | 00:00:00 | 00:00:00 | 00:00:00 | |
| AA1-15 | 2026-08-30 12:30:46 | 55.08311 | 19.72944 | 270° | 13km/h | 159087m | 8m/s | -52.2°C | 0% | 28.3hPa | 2.1V | 00:00:00 | 00:00:00 | 00:00:00 | |
| AA1-15 | 2026-08-30 12:30:35 | 55.08315 | 19.72998 | 270° | 15km/h | 2769m | 8.1m/s | -52.1°C | 0% | 28.6hPa | 2.1V | 00:00:00 | 00:00:00 | 00:00:00 | |
| AA1-15 | 2026-08-30 12:30:24 | 55.08308 | 19.73075 | 270° | 16km/h | 2705m | 8m/s | -52.2°C | 0% | 28.9hPa | 2.1V | 00:00:00 | 00:00:00 | 00:00:00 | |
| AA1-15 | 2026-08-30 12:30:13 | 55.08317 | 19.73149 | 270° | 13km/h | 2623m | 7.8m/s | -52.2°C | 0% | 29.2hPa | 2.1V | 00:00:00 | 00:00:00 | 00:00:00 | |
| AA1-15 | 2026-08-30 12:30:02 | 55.08325 | 19.73214 | 270° | 16km/h | 2555m | 8.1m/s | -52°C | 0% | 29.5hPa | 2.1V | 00:00:00 | 00:00:00 | 00:00:00 | |
| AA1-15 | 2026-08-30 12:29:51 | 55.08391 | 19.73237 | 268° | 13km/h | 2427m | 8m/s | -52.1°C | 0% | 29.8hPa | 2.1V | 00:00:00 | 00:00:00 | 00:00:00 | |
| AA1-15 | 2026-08-30 12:29:40 | 55.08367 | 19.73345 | 268° | 16km/h | 2369m | 8.4m/s | -52.2°C | 0% | 30.1hPa | 2.1V | 00:00:00 | 00:00:00 | 00:00:00 | |
| AA1-15 | 2026-08-30 12:29:29 | 55.08333 | 19.73410 | 269° | 13km/h | 2271m | 8.2m/s | -52.1°C | 0% | 30.5hPa | 2.1V | 00:00:00 | 00:00:00 | 00:00:00 | |
| AA1-15 | 2026-08-30 12:29:19 | 55.08292 | 19.73482 | 270° | 13km/h | 2197m | 7.8m/s | -52.1°C | 0% | 30.8hPa | 2.1V | 00:00:00 | 00:00:00 | 00:00:00 | |
| AA1-15 | 2026-08-30 12:29:08 | 55.08291 | 19.73560 | 276° | 18km/h | 2069m | 8.6m/s | -52°C | 0% | 31.1hPa | 2.1V | 00:00:00 | 00:00:00 | 00:00:00 | |
| AA1-15 | 2026-08-30 12:28:58 | 55.08294 | 19.73632 | 269° | 13km/h | 1989m | 8m/s | -52.2°C | 0% | 31.4hPa | 2.1V | 00:00:00 | 00:00:00 | 00:00:00 | |
| AA1-15 | 2026-08-30 12:28:56 | 55.08293 | 19.73638 | 268° | 15km/h | 1981m | 7.8m/s | -52.2°C | 0% | 31.4hPa | 2.1V | 00:00:00 | 00:00:00 | 00:00:00 | |
| AA1-15 | 2026-08-30 12:28:53 | 55.08296 | 19.73650 | 270° | 13km/h | 1961m | 7.9m/s | -52.2°C | 0% | 31.5hPa | 2.1V | 00:00:00 | 00:00:00 | 00:00:00 | |
| AA1-15 | 2026-08-30 12:28:50 | 55.08301 | 19.73665 | 271° | 16km/h | 1928m | 8m/s | -52.3°C | 0% | 31.6hPa | 2.1V | 00:00:00 | 00:00:00 | 00:00:00 | |
| AA1-15 | 2026-08-30 12:28:45 | 55.08310 | 19.73694 | 270° | 16km/h | 1877m | 8.3m/s | -52.5°C | 0% | 31.8hPa | 2.1V | 00:00:00 | 00:00:00 | 00:00:00 | |
| AA1-15 | 2026-08-30 12:28:44 | 55.08312 | 19.73699 | 271° | 13km/h | 1865m | 8.1m/s | -52.5°C | 0% | 31.8hPa | 2.1V | 00:00:00 | 00:00:00 | 00:00:00 | |
| AA1-15 | 2026-08-30 12:28:43 | 55.08313 | 19.73703 | 270° | 13km/h | 1855m | 8.1m/s | -52.5°C | 0% | 31.8hPa | 2.1V | 00:00:00 | 00:00:00 | 00:00:00 | |
| AA1-15 | 2026-08-30 12:28:42 | 55.08311 | 19.73716 | 277° | 20km/h | 1838m | 6.9m/s | -52.6°C | 0% | 31.9hPa | 2.1V | 00:00:00 | 00:00:00 | 00:00:00 | |
| AA1-15 | 2026-08-30 12:28:40 | 55.08309 | 19.73742 | 269° | 95km/h | 1831m | 8m/s | -52.6°C | 0% | 31.9hPa | 2.1V | 00:00:00 | 00:00:00 | 00:00:00 | |
| AA1-15 | 2026-08-30 12:28:39 | 55.08311 | 19.73784 | 261° | 97km/h | 1822m | 8m/s | -52.6°C | 0% | 31.9hPa | 2.1V | 00:00:00 | 00:00:00 | 00:00:00 | |
| AA1-15 | 2026-08-30 12:28:38 | 55.08317 | 19.73825 | 253° | 97km/h | 1813m | 8.1m/s | -52.6°C | 0% | 32hPa | 2.1V | 00:00:00 | 00:00:00 | 00:00:00 | |
| AA1-15 | 2026-08-30 12:28:37 | 55.08324 | 19.73865 | 249° | 95km/h | 1803m | 8.2m/s | -52.6°C | 0% | 32hPa | 2.1V | 00:00:00 | 00:00:00 | 00:00:00 | |
| AA1-15 | 2026-08-30 12:28:35 | 55.08343 | 19.73938 | 238° | 93km/h | 1786m | 7.9m/s | -52.6°C | 0% | 32hPa | 2.1V | 00:00:00 | 00:00:00 | 00:00:00 | |
| AA1-15 | 2026-08-30 12:28:33 | 55.08363 | 19.74003 | 225° | 93km/h | 1774m | 8.1m/s | -52.6°C | 0% | 32.1hPa | 2.1V | 00:00:00 | 00:00:00 | 00:00:00 | |
| AA1-15 | 2026-08-30 12:28:32 | 55.08374 | 19.74030 | 219° | 95km/h | 1766m | 8.1m/s | -52.6°C | 0% | 32.2hPa | 2.1V | 00:00:00 | 00:00:00 | 00:00:00 | |
| AA1-15 | 2026-08-30 12:28:31 | 55.08387 | 19.74055 | 213° | 100km/h | 1759m | 8.2m/s | -52.6°C | 0% | 32.2hPa | 2.1V | 00:00:00 | 00:00:00 | 00:00:00 | |
| AA1-15 | 2026-08-30 12:28:29 | 55.08426 | 19.74090 | 201° | 97km/h | 1740m | 8m/s | -52.6°C | 0% | 32.2hPa | 2.1V | 00:00:00 | 00:00:00 | 00:00:00 | |
| AA1-15 | 2026-08-30 12:28:28 | 55.08448 | 19.74102 | 193° | 99km/h | 1731m | 8m/s | -52.6°C | 0% | 32.2hPa | 2.1V | 00:00:00 | 00:00:00 | 00:00:00 | |
| AA1-15 | 2026-08-30 12:28:26 | 55.08494 | 19.74111 | 182° | 100km/h | 1713m | 8.1m/s | -52.7°C | 0% | 32.3hPa | 2.1V | 00:00:00 | 00:00:00 | 00:00:00 | |
| AA1-15 | 2026-08-30 12:28:25 | 55.08517 | 19.74111 | 177° | 97km/h | 1706m | 7.5m/s | -52.7°C | 0% | 32.4hPa | 2.1V | 00:00:00 | 00:00:00 | 00:00:00 | |
| AA1-15 | 2026-08-30 12:28:22 | 55.08581 | 19.74077 | 159° | 99km/h | 1680m | 8m/s | -52.7°C | 0% | 32.5hPa | 2.1V | 00:00:00 | 00:00:00 | 00:00:00 | |
| AA1-15 | 2026-08-30 12:28:21 | 55.08599 | 19.74057 | 151° | 93km/h | 1670m | 8m/s | -52.7°C | 0% | 32.5hPa | 2.1V | 00:00:00 | 00:00:00 | 00:00:00 | |
| AA1-15 | 2026-08-30 12:28:20 | 55.08613 | 19.74031 | 146° | 97km/h | 1659m | 8.1m/s | -52.7°C | 0% | 32.5hPa | 2.1V | 00:00:00 | 00:00:00 | 00:00:00 | |
| AA1-15 | 2026-08-30 12:28:18 | 55.08612 | 19.73976 | 131° | 93km/h | 1636m | 8.1m/s | -52.6°C | 0% | 32.6hPa | 2.1V | 00:00:00 | 00:00:00 | 00:00:00 | |
| AA1-15 | 2026-08-30 12:28:17 | 55.08626 | 19.73945 | 126° | 95km/h | 1632m | 8.3m/s | -52.6°C | 0% | 32.6hPa | 2.1V | 00:00:00 | 00:00:00 | 00:00:00 | |
| AA1-15 | 2026-08-30 12:28:14 | 55.08656 | 19.73837 | 110° | 95km/h | 1621m | 8m/s | -52.6°C | 0% | 32.7hPa | 2.1V | 00:00:00 | 00:00:00 | 00:00:00 | |
| AA1-15 | 2026-08-30 12:28:13 | 55.08664 | 19.73798 | 105° | 99km/h | 1617m | 8.1m/s | -52.6°C | 0% | 32.7hPa | 2.1V | 00:00:00 | 00:00:00 | 00:00:00 | |
| AA1-15 | 2026-08-30 12:28:11 | 55.08675 | 19.73718 | 94° | 95km/h | 1605m | 8.1m/s | -52.5°C | 0% | 32.8hPa | 2.1V | 00:00:00 | 00:00:00 | 00:00:00 | |
| AA1-15 | 2026-08-30 12:28:10 | 55.08677 | 19.73677 | 86° | 95km/h | 1596m | 8.2m/s | -52.5°C | 0% | 32.8hPa | 2.1V | 00:00:00 | 00:00:00 | 00:00:00 | |
| AA1-15 | 2026-08-30 12:28:08 | 55.08672 | 19.73595 | 74° | 95km/h | 1578m | 8m/s | -52.6°C | 0% | 32.9hPa | 2.1V | 00:00:00 | 00:00:00 | 00:00:00 | |
| AA1-15 | 2026-08-30 12:28:07 | 55.08665 | 19.73557 | 69° | 91km/h | 1569m | 8m/s | -52.6°C | 0% | 32.9hPa | 2.1V | 00:00:00 | 00:00:00 | 00:00:00 | |
| AA1-15 | 2026-08-30 12:28:06 | 55.08656 | 19.73520 | 60° | 93km/h | 1561m | 8.2m/s | -52.6°C | 0% | 32.9hPa | 2.1V | 00:00:00 | 00:00:00 | 00:00:00 | |
| AA1-15 | 2026-08-30 12:28:04 | 55.08631 | 19.73452 | 49° | 97km/h | 1545m | 8.2m/s | -52.5°C | 0% | 33hPa | 2.1V | 00:00:00 | 00:00:00 | 00:00:00 | |
| AA1-15 | 2026-08-30 12:28:03 | 55.08614 | 19.73423 | 42° | 95km/h | 1538m | 8m/s | -52.5°C | 0% | 33hPa | 2.1V | 00:00:00 | 00:00:00 | 00:00:00 | |
| AA1-15 | 2026-08-30 12:28:02 | 55.08596 | 19.73397 | 36° | 91km/h | 1531m | 8m/s | -52.5°C | 0% | 33hPa | 2.1V | 00:00:00 | 00:00:00 | 00:00:00 | |
| AA1-15 | 2026-08-30 12:28:01 | 55.08575 | 19.73375 | 30° | 97km/h | 1523m | 8m/s | -52.5°C | 0% | 33.1hPa | 2.1V | 00:00:00 | 00:00:00 | 00:00:00 | |
| AA1-15 | 2026-08-30 12:28:00 | 55.08554 | 19.73355 | 26° | 97km/h | 1515m | 8.1m/s | -52.5°C | 0% | 33.1hPa | 2.1V | 00:00:00 | 00:00:00 | 00:00:00 | |
| AA1-15 | 2026-08-30 12:27:59 | 55.08530 | 19.73339 | 19° | 95km/h | 1508m | 8.1m/s | -52.5°C | 0% | 33.1hPa | 2.1V | 00:00:00 | 00:00:00 | 00:00:00 | |
| AA1-15 | 2026-08-30 12:27:57 | 55.08482 | 19.73322 | 6° | 95km/h | 1495m | 8.1m/s | -52.6°C | 0% | 33.2hPa | 2.1V | 00:00:00 | 00:00:00 | 00:00:00 | |
| AA1-15 | 2026-08-30 12:27:56 | 55.08459 | 19.73320 | 0° | 93km/h | 1487m | 8.1m/s | -52.7°C | 0% | 33.2hPa | 2.1V | 00:00:00 | 00:00:00 | 00:00:00 | |
| AA1-15 | 2026-08-30 12:27:54 | 55.08412 | 19.73319 | 0° | 100km/h | 1472m | 8.1m/s | -52.7°C | 0% | 33.3hPa | 2.1V | 00:00:00 | 00:00:00 | 00:00:00 | |
| AA1-15 | 2026-08-30 12:27:53 | 55.08388 | 19.73319 | 0° | 95km/h | 1465m | 8m/s | -52.7°C | 0% | 33.4hPa | 2.1V | 00:00:00 | 00:00:00 | 00:00:00 | |
| AA1-15 | 2026-08-30 12:27:52 | 55.08362 | 19.73319 | 0° | 100km/h | 1461m | 8m/s | -52.7°C | 0% | 33.4hPa | 2.1V | 00:00:00 | 00:00:00 | 00:00:00 | |
| AA1-15 | 2026-08-30 12:27:50 | 55.08311 | 19.73320 | 0° | 100km/h | 1452m | 8m/s | -52.6°C | 0% | 33.4hPa | 2.1V | 00:00:00 | 00:00:00 | 00:00:00 | |
| AA1-15 | 2026-08-30 12:27:49 | 55.08288 | 19.73320 | 360° | 93km/h | 1444m | 8m/s | -52.7°C | 0% | 33.5hPa | 2.1V | 00:00:00 | 00:00:00 | 00:00:00 | |
| AA1-15 | 2026-08-30 12:27:47 | 55.08244 | 19.73319 | 0° | 93km/h | 1429m | 8.1m/s | -52.6°C | 0% | 33.5hPa | 2.1V | 00:00:00 | 00:00:00 | 00:00:00 | |
| AA1-15 | 2026-08-30 12:27:45 | 55.08182 | 19.73316 | 0° | 95km/h | 1408m | 8.2m/s | -52.5°C | 0% | 33.6hPa | 2.1V | 00:00:00 | 00:00:00 | 00:00:00 | |
| AA1-15 | 2026-08-30 12:27:44 | 55.08163 | 19.73315 | 0° | 100km/h | 1401m | 8.2m/s | -52.4°C | 0% | 33.6hPa | 2.1V | 00:00:00 | 00:00:00 | 00:00:00 | |
| AA1-15 | 2026-08-30 12:27:42 | 55.08143 | 19.73314 | 0° | 95km/h | 1393m | 8.1m/s | -52.4°C | 0% | 33.7hPa | 2.1V | 00:00:00 | 00:00:00 | 00:00:00 | |
| AA1-15 | 2026-08-30 12:27:41 | 55.08123 | 19.73313 | 0° | 100km/h | 1384m | 8m/s | -52.4°C | 0% | 33.7hPa | 2.1V | 00:00:00 | 00:00:00 | 00:00:00 | |
| AA1-15 | 2026-08-30 12:27:39 | 55.08084 | 19.73310 | 0° | 100km/h | 1366m | 8m/s | -52.3°C | 0% | 33.8hPa | 2.1V | 00:00:00 | 00:00:00 | 00:00:00 | |
| AA1-15 | 2026-08-30 12:27:37 | 55.08042 | 19.73307 | 6° | 97km/h | 1355m | 8.1m/s | -52.4°C | 0% | 33.9hPa | 2.1V | 00:00:00 | 00:00:00 | 00:00:00 | |
| AA1-15 | 2026-08-30 12:27:35 | 55.07995 | 19.73271 | 43° | 100km/h | 1353m | 8.1m/s | -52.4°C | 0% | 33.9hPa | 2.1V | 00:00:00 | 00:00:00 | 00:00:00 | |
| AA1-15 | 2026-08-30 12:27:34 | 55.07974 | 19.73237 | 58° | 97km/h | 1352m | 8.1m/s | -52.5°C | 0% | 34hPa | 2.1V | 00:00:00 | 00:00:00 | 00:00:00 | |
| AA1-15 | 2026-08-30 12:27:32 | 55.07963 | 19.73153 | 99° | 97km/h | 1345m | 8m/s | -52.5°C | 0% | 34hPa | 2.1V | 00:00:00 | 00:00:00 | 00:00:00 | |
| AA1-15 | 2026-08-30 12:27:31 | 55.07968 | 19.73110 | 116° | 97km/h | 1337m | 8m/s | -52.6°C | 0% | 34hPa | 2.1V | 00:00:00 | 00:00:00 | 00:00:00 | |
| AA1-15 | 2026-08-30 12:27:30 | 55.07981 | 19.73073 | 134° | 95km/h | 1329m | 8.1m/s | -52.6°C | 0% | 34.1hPa | 2.1V | 00:00:00 | 00:00:00 | 00:00:00 | |
| AA1-15 | 2026-08-30 12:27:28 | 55.08021 | 19.73030 | 171° | 95km/h | 1315m | 8.2m/s | -52.6°C | 0% | 34.2hPa | 2.1V | 00:00:00 | 00:00:00 | 00:00:00 | |
| AA1-15 | 2026-08-30 12:27:27 | 55.08041 | 19.73025 | 189° | 89km/h | 1308m | 8.1m/s | -52.6°C | 0% | 34.2hPa | 2.1V | 00:00:00 | 00:00:00 | 00:00:00 | |
| AA1-15 | 2026-08-30 12:27:25 | 55.08078 | 19.73058 | 224° | 95km/h | 1293m | 7.9m/s | -52.7°C | 0% | 34.2hPa | 2.1V | 00:00:00 | 00:00:00 | 00:00:00 | |
| AA1-15 | 2026-08-30 12:27:24 | 55.08090 | 19.73089 | 242° | 97km/h | 1287m | 7.9m/s | -52.7°C | 0% | 34.3hPa | 2.1V | 00:00:00 | 00:00:00 | 00:00:00 | |
| AA1-15 | 2026-08-30 12:27:22 | 55.08086 | 19.73165 | 270° | 95km/h | 1278m | 8m/s | -52.8°C | 0% | 34.3hPa | 2.1V | 00:00:00 | 00:00:00 | 00:00:00 | |
| AA1-15 | 2026-08-30 12:27:21 | 55.08082 | 19.73204 | 270° | 95km/h | 1275m | 8.2m/s | -52.9°C | 0% | 34.4hPa | 2.1V | 00:00:00 | 00:00:00 | 00:00:00 | |
| AA1-15 | 2026-08-30 12:27:20 | 55.08078 | 19.73242 | 270° | 99km/h | 1276m | 8m/s | -53°C | 0% | 34.4hPa | 2.1V | 00:00:00 | 00:00:00 | 00:00:00 | |
| AA1-15 | 2026-08-30 12:27:18 | 55.08067 | 19.73319 | 270° | 95km/h | 1272m | 8.1m/s | -53.1°C | 0% | 34.5hPa | 2.1V | 00:00:00 | 00:00:00 | 00:00:00 | |
| AA1-15 | 2026-08-30 12:27:17 | 55.08059 | 19.73354 | 270° | 95km/h | 1270m | 7.6m/s | -53.1°C | 0% | 34.5hPa | 2.1V | 00:00:00 | 00:00:00 | 00:00:00 | |
| AA1-15 | 2026-08-30 12:27:16 | 55.08049 | 19.73389 | 270° | 99km/h | 1270m | 7.5m/s | -53.2°C | 0% | 34.5hPa | 2.1V | 00:00:00 | 00:00:00 | 00:00:00 | |
| AA1-15 | 2026-08-30 12:27:15 | 55.08025 | 19.73458 | 268° | 93km/h | 1273m | 5.9m/s | -53.2°C | 0% | 34.6hPa | 2.1V | 00:00:00 | 00:00:00 | 00:00:00 | |
| AA1-15 | 2026-08-30 12:27:13 | 55.08020 | 19.73493 | 270° | 95km/h | 1284m | 7.7m/s | -53.2°C | 0% | 34.6hPa | 2.1V | 00:00:00 | 00:00:00 | 00:00:00 | |
| AA1-15 | 2026-08-30 12:27:11 | 55.07985 | 19.73547 | 270° | 99km/h | 1307m | 7.8m/s | -53.3°C | 0% | 34.7hPa | 2.1V | 00:00:00 | 00:00:00 | 00:00:00 | |
| AA1-15 | 2026-08-30 12:27:10 | 55.07963 | 19.73570 | 270° | 95km/h | 1326m | 8m/s | -53.3°C | 0% | 34.8hPa | 2.1V | 00:00:00 | 00:00:00 | 00:00:00 | |
| AA1-15 | 2026-08-30 12:27:09 | 55.07937 | 19.73589 | 271° | 93km/h | 1352m | 7.7m/s | -53.3°C | 0% | 34.8hPa | 2.1V | 00:00:00 | 00:00:00 | 00:00:00 | |
| AA1-15 | 2026-08-30 12:27:07 | 55.07900 | 19.73640 | 262° | 95km/h | 1372m | 7.9m/s | -53.3°C | 0% | 34.9hPa | 2.1V | 00:00:00 | 00:00:00 | 00:00:00 | |
| AA1-15 | 2026-08-30 12:27:05 | 55.07821 | 19.73649 | 247° | 97km/h | 1460m | 7.9m/s | -53.2°C | 0% | 35hPa | 2.1V | 00:00:00 | 00:00:00 | 00:00:00 | |
| AA1-15 | 2026-08-30 12:27:04 | 55.07741 | 19.73610 | 237° | 93km/h | 1570m | 7.9m/s | -53.2°C | 0% | 35hPa | 2.1V | 00:00:00 | 00:00:00 | 00:00:00 | |
| AA1-15 | 2026-08-30 12:27:03 | 55.07613 | 19.73514 | 228° | 93km/h | 1787m | 8.1m/s | -53.3°C | 0% | 35hPa | 2.1V | 00:00:00 | 00:00:00 | 00:00:00 | |
| AA1-15 | 2026-08-30 12:26:57 | 54.92255 | 19.89541 | 202° | 18km/h | 159087m | 12.1m/s | -53.3°C | 0% | 35.2hPa | 2.3V | 00:00:00 | 00:00:00 | 00:00:00 | |
| AA1-15 | 2026-08-30 12:26:47 | 54.92298 | 19.89571 | 202° | 18km/h | 2765m | 12.1m/s | -53.1°C | 0% | 35.5hPa | 2.3V | 00:00:00 | 00:00:00 | 00:00:00 | |
| AA1-15 | 2026-08-30 12:26:36 | 54.92294 | 19.89644 | 270° | 13km/h | 2652m | 8.2m/s | -53°C | 0% | 35.9hPa | 2.3V | 00:00:00 | 00:00:00 | 00:00:00 | |
| AA1-15 | 2026-08-30 12:26:25 | 54.92281 | 19.89705 | 270° | 13km/h | 2554m | 8m/s | -53.1°C | 0% | 36.2hPa | 2.3V | 00:00:00 | 00:00:00 | 00:00:00 | |
| AA1-15 | 2026-08-30 12:26:15 | 54.92273 | 19.89763 | 271° | 15km/h | 2457m | 8.1m/s | -53°C | 0% | 36.6hPa | 2.3V | 00:00:00 | 00:00:00 | 00:00:00 | |
| AA1-15 | 2026-08-30 12:26:04 | 54.92249 | 19.89817 | 270° | 13km/h | 2401m | 8m/s | -52.9°C | 0% | 36.9hPa | 2.3V | 00:00:00 | 00:00:00 | 00:00:00 | |
| AA1-15 | 2026-08-30 12:25:53 | 54.92222 | 19.89937 | 267° | 15km/h | 2352m | 8m/s | -52.7°C | 0% | 37.3hPa | 2.3V | 00:00:00 | 00:00:00 | 00:00:00 | |
| AA1-15 | 2026-08-30 12:25:42 | 54.92236 | 19.90003 | 271° | 16km/h | 2248m | 8m/s | -52.9°C | 0% | 37.6hPa | 2.3V | 00:00:00 | 00:00:00 | 00:00:00 | |
| AA1-15 | 2026-08-30 12:25:32 | 54.92246 | 19.90061 | 268° | 15km/h | 2152m | 7.9m/s | -52.9°C | 0% | 38hPa | 2.3V | 00:00:00 | 00:00:00 | 00:00:00 | |
| AA1-15 | 2026-08-30 12:25:22 | 54.92219 | 19.90122 | 268° | 13km/h | 2041m | 8.3m/s | -53°C | 0% | 38.3hPa | 2.3V | 00:00:00 | 00:00:00 | 00:00:00 | |
| AA1-15 | 2026-08-30 12:25:12 | 54.92275 | 19.90197 | 269° | 13km/h | 1983m | 8.1m/s | -53.2°C | 0% | 38.7hPa | 2.3V | 00:00:00 | 00:00:00 | 00:00:00 | |
| AA1-15 | 2026-08-30 12:25:09 | 54.92274 | 19.90209 | 270° | 13km/h | 1966m | 8.2m/s | -53.3°C | 0% | 38.8hPa | 2.3V | 00:00:00 | 00:00:00 | 00:00:00 | |
| AA1-15 | 2026-08-30 12:25:08 | 54.92275 | 19.90216 | 270° | 16km/h | 1958m | 8.1m/s | -53.2°C | 0% | 38.8hPa | 2.3V | 00:00:00 | 00:00:00 | 00:00:00 | |
| AA1-15 | 2026-08-30 12:25:07 | 54.92276 | 19.90222 | 269° | 13km/h | 1950m | 8.2m/s | -53.3°C | 0% | 38.8hPa | 2.3V | 00:00:00 | 00:00:00 | 00:00:00 | |
| AA1-15 | 2026-08-30 12:25:06 | 54.92278 | 19.90234 | 270° | 13km/h | 1934m | 7.9m/s | -53.3°C | 0% | 38.9hPa | 2.3V | 00:00:00 | 00:00:00 | 00:00:00 | |
| AA1-15 | 2026-08-30 12:25:04 | 54.92280 | 19.90244 | 270° | 13km/h | 1917m | 8.3m/s | -53.4°C | 0% | 39hPa | 2.3V | 00:00:00 | 00:00:00 | 00:00:00 | |
| AA1-15 | 2026-08-30 12:25:03 | 54.92278 | 19.90249 | 271° | 15km/h | 1908m | 8.1m/s | -53.4°C | 0% | 39hPa | 2.3V | 00:00:00 | 00:00:00 | 00:00:00 | |
| AA1-15 | 2026-08-30 12:25:01 | 54.92275 | 19.90252 | 269° | 13km/h | 1900m | 8.1m/s | -53.4°C | 0% | 39hPa | 2.3V | 00:00:00 | 00:00:00 | 00:00:00 | |
| AA1-15 | 2026-08-30 12:25:01 | 54.92274 | 19.90256 | 268° | 15km/h | 1893m | 8.1m/s | -53.4°C | 0% | 39.1hPa | 2.3V | 00:00:00 | 00:00:00 | 00:00:00 | |
| AA1-15 | 2026-08-30 12:24:58 | 54.92271 | 19.90264 | 268° | 15km/h | 1880m | 8.2m/s | -53.4°C | 0% | 39.1hPa | 2.3V | 00:00:00 | 00:00:00 | 00:00:00 | |
| AA1-15 | 2026-08-30 12:24:56 | 54.92274 | 19.90271 | 268° | 15km/h | 1869m | 8.2m/s | -53.3°C | 0% | 39.2hPa | 2.3V | 00:00:00 | 00:00:00 | 00:00:00 | |
| AA1-15 | 2026-08-30 12:24:54 | 54.92263 | 19.90282 | 270° | 13km/h | 1847m | 8m/s | -53.3°C | 0% | 39.4hPa | 2.3V | 00:00:00 | 00:00:00 | 00:00:00 | |
| AA1-15 | 2026-08-30 12:24:51 | 54.92261 | 19.90289 | 270° | 16km/h | 1840m | 8.1m/s | -53.3°C | 0% | 39.4hPa | 2.3V | 00:00:00 | 00:00:00 | 00:00:00 | |
| AA1-15 | 2026-08-30 12:24:50 | 54.92260 | 19.90295 | 268° | 13km/h | 1832m | 8.3m/s | -53.3°C | 0% | 39.4hPa | 2.3V | 00:00:00 | 00:00:00 | 00:00:00 | |
| AA1-15 | 2026-08-30 12:24:47 | 54.92253 | 19.90313 | 269° | 16km/h | 1810m | 8m/s | -53.2°C | 0% | 39.5hPa | 2.3V | 00:00:00 | 00:00:00 | 00:00:00 | |
| AA1-15 | 2026-08-30 12:24:45 | 54.92256 | 19.90322 | 270° | 16km/h | 1797m | 8.2m/s | -53.2°C | 0% | 39.6hPa | 2.3V | 00:00:00 | 00:00:00 | 00:00:00 | |
| AA1-15 | 2026-08-30 12:24:43 | 54.92264 | 19.90304 | 270° | 11km/h | 1781m | 9.6m/s | -53.2°C | 0% | 39.7hPa | 2.3V | 00:00:00 | 00:00:00 | 00:00:00 | |
| AA1-15 | 2026-08-30 12:24:40 | 54.92262 | 19.90347 | 269° | 95km/h | 1793m | 8.2m/s | -53.2°C | 0% | 39.8hPa | 2.3V | 00:00:00 | 00:00:00 | 00:00:00 | |
| AA1-15 | 2026-08-30 12:24:38 | 54.92263 | 19.90424 | 253° | 99km/h | 1780m | 8.3m/s | -53.2°C | 0% | 39.8hPa | 2.3V | 00:00:00 | 00:00:00 | 00:00:00 | |
| AA1-15 | 2026-08-30 12:24:37 | 54.92267 | 19.90464 | 248° | 95km/h | 1774m | 8m/s | -53.1°C | 0% | 39.9hPa | 2.3V | 00:00:00 | 00:00:00 | 00:00:00 | |
| AA1-15 | 2026-08-30 12:24:36 | 54.92273 | 19.90498 | 240° | 97km/h | 1768m | 8m/s | -53.1°C | 0% | 39.9hPa | 2.3V | 00:00:00 | 00:00:00 | 00:00:00 | |
| AA1-15 | 2026-08-30 12:24:35 | 54.92279 | 19.90538 | 239° | 93km/h | 1763m | 7.4m/s | -53.1°C | 0% | 40hPa | 2.3V | 00:00:00 | 00:00:00 | 00:00:00 | |
| AA1-15 | 2026-08-30 12:24:35 | 54.92284 | 19.90578 | 234° | 95km/h | 1759m | 7.4m/s | -53°C | 0% | 40hPa | 2.3V | 00:00:00 | 00:00:00 | 00:00:00 | |
| AA1-15 | 2026-08-30 12:24:33 | 54.92293 | 19.90615 | 227° | 95km/h | 1754m | 7.8m/s | -53.1°C | 0% | 40hPa | 2.3V | 00:00:00 | 00:00:00 | 00:00:00 | |
| AA1-15 | 2026-08-30 12:24:32 | 54.92306 | 19.90648 | 218° | 95km/h | 1750m | 8.3m/s | -53.1°C | 0% | 40hPa | 2.3V | 00:00:00 | 00:00:00 | 00:00:00 | |
| AA1-15 | 2026-08-30 12:24:31 | 54.92340 | 19.90701 | 207° | 91km/h | 1743m | 8.1m/s | -53°C | 0% | 40.1hPa | 2.3V | 00:00:00 | 00:00:00 | 00:00:00 | |
| AA1-15 | 2026-08-30 12:24:29 | 54.92358 | 19.90722 | 199° | 97km/h | 1739m | 8.1m/s | -53°C | 0% | 40.1hPa | 2.3V | 00:00:00 | 00:00:00 | 00:00:00 | |
| AA1-15 | 2026-08-30 12:24:27 | 54.92378 | 19.90784 | 189° | 97km/h | 1741m | 8.1m/s | -53°C | 0% | 40.3hPa | 2.3V | 00:00:00 | 00:00:00 | 00:00:00 | |
| AA1-15 | 2026-08-30 12:24:26 | 54.92402 | 19.90788 | 182° | 100km/h | 1738m | 8m/s | -53°C | 0% | 40.3hPa | 2.3V | 00:00:00 | 00:00:00 | 00:00:00 | |
| AA1-15 | 2026-08-30 12:24:25 | 54.92426 | 19.90787 | 176° | 95km/h | 1729m | 8.1m/s | -53°C | 0% | 40.3hPa | 2.3V | 00:00:00 | 00:00:00 | 00:00:00 | |
| AA1-15 | 2026-08-30 12:24:24 | 54.92450 | 19.90783 | 171° | 95km/h | 1720m | 8m/s | -52.9°C | 0% | 40.3hPa | 2.3V | 00:00:00 | 00:00:00 | 00:00:00 | |
| AA1-15 | 2026-08-30 12:24:23 | 54.92495 | 19.90760 | 159° | 99km/h | 1700m | 8m/s | -52.9°C | 0% | 40.4hPa | 2.3V | 00:00:00 | 00:00:00 | 00:00:00 | |
| AA1-15 | 2026-08-30 12:24:21 | 54.92536 | 19.90720 | 146° | 97km/h | 1682m | 8m/s | -52.9°C | 0% | 40.5hPa | 2.3V | 00:00:00 | 00:00:00 | 00:00:00 | |
| AA1-15 | 2026-08-30 12:24:19 | 54.92554 | 19.90694 | 140° | 100km/h | 1673m | 7.9m/s | -52.9°C | 0% | 40.5hPa | 2.3V | 00:00:00 | 00:00:00 | 00:00:00 | |
| AA1-15 | 2026-08-30 12:24:17 | 54.92583 | 19.90632 | 127° | 91km/h | 1654m | 8.1m/s | -52.9°C | 0% | 40.6hPa | 2.3V | 00:00:00 | 00:00:00 | 00:00:00 | |
| AA1-15 | 2026-08-30 12:24:16 | 54.92594 | 19.90596 | 118° | 97km/h | 1643m | 8m/s | -52.9°C | 0% | 40.6hPa | 2.3V | 00:00:00 | 00:00:00 | 00:00:00 | |
| AA1-15 | 2026-08-30 12:24:15 | 54.92603 | 19.90557 | 114° | 99km/h | 1632m | 8.2m/s | -52.9°C | 0% | 40.6hPa | 2.3V | 00:00:00 | 00:00:00 | 00:00:00 | |
| AA1-15 | 2026-08-30 12:24:13 | 54.92625 | 19.90479 | 105° | 97km/h | 1619m | 8.3m/s | -52.9°C | 0% | 40.7hPa | 2.3V | 00:00:00 | 00:00:00 | 00:00:00 | |
| AA1-15 | 2026-08-30 12:24:11 | 54.92635 | 19.90399 | 94° | 95km/h | 1610m | 8.1m/s | -52.8°C | 0% | 40.8hPa | 2.3V | 00:00:00 | 00:00:00 | 00:00:00 | |
| AA1-15 | 2026-08-30 12:24:10 | 54.92632 | 19.90319 | 78° | 99km/h | 1602m | 8.1m/s | -52.7°C | 0% | 40.9hPa | 2.3V | 00:00:00 | 00:00:00 | 00:00:00 | |
| AA1-15 | 2026-08-30 12:24:09 | 54.92627 | 19.90280 | 74° | 95km/h | 1599m | 8.2m/s | -52.7°C | 0% | 40.9hPa | 2.3V | 00:00:00 | 00:00:00 | 00:00:00 | |
| AA1-15 | 2026-08-30 12:24:06 | 54.92611 | 19.90207 | 60° | 93km/h | 1593m | 8.4m/s | -52.6°C | 0% | 41hPa | 2.3V | 00:00:00 | 00:00:00 | 00:00:00 | |
| AA1-15 | 2026-08-30 12:24:04 | 54.92585 | 19.90145 | 49° | 93km/h | 1588m | 8.2m/s | -52.5°C | 0% | 41.1hPa | 2.3V | 00:00:00 | 00:00:00 | 00:00:00 | |
| AA1-15 | 2026-08-30 12:24:03 | 54.92549 | 19.90093 | 36° | 91km/h | 1576m | 8.1m/s | -52.5°C | 0% | 41.1hPa | 2.3V | 00:00:00 | 00:00:00 | 00:00:00 | |
| AA1-15 | 2026-08-30 12:24:01 | 54.92529 | 19.90070 | 30° | 97km/h | 1567m | 8m/s | -52.5°C | 0% | 41.1hPa | 2.3V | 00:00:00 | 00:00:00 | 00:00:00 | |
| AA1-15 | 2026-08-30 12:24:00 | 54.92461 | 19.90024 | 13° | 97km/h | 1537m | 7.9m/s | -52.4°C | 0% | 41.3hPa | 2.3V | 00:00:00 | 00:00:00 | 00:00:00 | |
| AA1-15 | 2026-08-30 12:23:58 | 54.92436 | 19.90017 | 6° | 95km/h | 1527m | 7.9m/s | -52.4°C | 0% | 41.3hPa | 2.3V | 00:00:00 | 00:00:00 | 00:00:00 | |
| AA1-15 | 2026-08-30 12:23:56 | 54.92412 | 19.90015 | 0° | 93km/h | 1518m | 8m/s | -52.3°C | 0% | 41.3hPa | 2.3V | 00:00:00 | 00:00:00 | 00:00:00 | |
| AA1-15 | 2026-08-30 12:23:54 | 54.92363 | 19.90015 | 0° | 100km/h | 1497m | 8m/s | -52.3°C | 0% | 41.4hPa | 2.3V | 00:00:00 | 00:00:00 | 00:00:00 | |
| AA1-15 | 2026-08-30 12:23:53 | 54.92338 | 19.90015 | 0° | 95km/h | 1487m | 8m/s | -52.3°C | 0% | 41.4hPa | 2.3V | 00:00:00 | 00:00:00 | 00:00:00 | |
| AA1-15 | 2026-08-30 12:23:50 | 54.92265 | 19.90020 | 0° | 100km/h | 1468m | 8.1m/s | -52.3°C | 0% | 41.5hPa | 2.3V | 00:00:00 | 00:00:00 | 00:00:00 | |
| AA1-15 | 2026-08-30 12:23:49 | 54.92196 | 19.90023 | 0° | 93km/h | 1449m | 8.1m/s | -52.3°C | 0% | 41.7hPa | 2.3V | 00:00:00 | 00:00:00 | 00:00:00 | |
| AA1-15 | 2026-08-30 12:23:47 | 54.92170 | 19.90023 | 0° | 95km/h | 1440m | 8.1m/s | -52.2°C | 0% | 41.7hPa | 2.3V | 00:00:00 | 00:00:00 | 00:00:00 | |
| AA1-15 | 2026-08-30 12:23:44 | 54.92116 | 19.90022 | 360° | 93km/h | 1420m | 8m/s | -52.1°C | 0% | 41.8hPa | 2.3V | 00:00:00 | 00:00:00 | 00:00:00 | |
| AA1-15 | 2026-08-30 12:23:43 | 54.92095 | 19.90023 | 0° | 100km/h | 1417m | 8m/s | -52.1°C | 0% | 41.8hPa | 2.3V | 00:00:00 | 00:00:00 | 00:00:00 | |
| AA1-15 | 2026-08-30 12:23:43 | 54.92075 | 19.90024 | 0° | 95km/h | 1414m | 7.9m/s | -52.1°C | 0% | 41.9hPa | 2.3V | 00:00:00 | 00:00:00 | 00:00:00 | |
| AA1-15 | 2026-08-30 12:23:40 | 54.92019 | 19.90023 | 0° | 95km/h | 1392m | 8.1m/s | -52.1°C | 0% | 41.9hPa | 2.3V | 00:00:00 | 00:00:00 | 00:00:00 | |
| AA1-15 | 2026-08-30 12:23:39 | 54.91992 | 19.90022 | 0° | 100km/h | 1381m | 8m/s | -52.1°C | 0% | 41.9hPa | 2.3V | 00:00:00 | 00:00:00 | 00:00:00 | |
| AA1-15 | 2026-08-30 12:23:38 | 54.91918 | 19.90009 | 24° | 97km/h | 1352m | 8.4m/s | -52°C | 0% | 42.1hPa | 2.3V | 00:00:00 | 00:00:00 | 00:00:00 | |
| AA1-15 | 2026-08-30 12:23:35 | 54.91898 | 19.89986 | 41° | 99km/h | 1344m | 7.9m/s | -52°C | 0% | 42.1hPa | 2.3V | 00:00:00 | 00:00:00 | 00:00:00 | |
| AA1-15 | 2026-08-30 12:23:34 | 54.91882 | 19.89953 | 59° | 97km/h | 1335m | 8m/s | -52°C | 0% | 42.1hPa | 2.3V | 00:00:00 | 00:00:00 | 00:00:00 | |
| AA1-15 | 2026-08-30 12:23:32 | 54.91873 | 19.89870 | 99° | 99km/h | 1317m | 8.1m/s | -52.1°C | 0% | 42.2hPa | 2.3V | 00:00:00 | 00:00:00 | 00:00:00 | |
| AA1-15 | 2026-08-30 12:23:30 | 54.91891 | 19.89794 | 134° | 95km/h | 1298m | 8.2m/s | -52.3°C | 0% | 42.3hPa | 2.3V | 00:00:00 | 00:00:00 | 00:00:00 | |
| AA1-15 | 2026-08-30 12:23:28 | 54.91925 | 19.89757 | 171° | 97km/h | 1284m | 8m/s | -52.4°C | 0% | 42.4hPa | 2.3V | 00:00:00 | 00:00:00 | 00:00:00 | |
| AA1-15 | 2026-08-30 12:23:27 | 54.91967 | 19.89769 | 206° | 100km/h | 1262m | 8.2m/s | -52.5°C | 0% | 42.5hPa | 2.3V | 00:00:00 | 00:00:00 | 00:00:00 | |
| AA1-15 | 2026-08-30 12:23:26 | 54.91990 | 19.89793 | 224° | 95km/h | 1259m | 8.2m/s | -52.5°C | 0% | 42.5hPa | 2.3V | 00:00:00 | 00:00:00 | 00:00:00 | |
| AA1-15 | 2026-08-30 12:23:24 | 54.92010 | 19.89825 | 242° | 97km/h | 1254m | 8.3m/s | -52.5°C | 0% | 42.5hPa | 2.3V | 00:00:00 | 00:00:00 | 00:00:00 | |
| AA1-15 | 2026-08-30 12:23:23 | 54.92023 | 19.89863 | 262° | 95km/h | 1248m | 8.7m/s | -52.5°C | 0% | 42.5hPa | 2.3V | 00:00:00 | 00:00:00 | 00:00:00 | |
| AA1-15 | 2026-08-30 12:23:22 | 54.92024 | 19.89907 | 270° | 99km/h | 1248m | 8m/s | -52.5°C | 0% | 42.6hPa | 2.3V | 00:00:00 | 00:00:00 | 00:00:00 | |
| AA1-15 | 2026-08-30 12:23:21 | 54.92021 | 19.89990 | 270° | 95km/h | 1221m | 8m/s | -52.5°C | 0% | 42.7hPa | 2.3V | 00:00:00 | 00:00:00 | 00:00:00 | |
| AA1-15 | 2026-08-30 12:23:19 | 54.92021 | 19.90032 | 270° | 95km/h | 1204m | 8m/s | -52.5°C | 0% | 42.7hPa | 2.3V | 00:00:00 | 00:00:00 | 00:00:00 | |
| AA1-15 | 2026-08-30 12:23:17 | 54.92028 | 19.90120 | 270° | 97km/h | 1187m | 8.1m/s | -52.5°C | 0% | 42.7hPa | 2.3V | 00:00:00 | 00:00:00 | 00:00:00 | |
| AA1-15 | 2026-08-30 12:23:16 | 54.92036 | 19.90207 | 270° | 95km/h | 1179m | 8m/s | -52.5°C | 0% | 42.9hPa | 2.3V | 00:00:00 | 00:00:00 | 00:00:00 | |
| AA1-15 | 2026-08-30 12:23:14 | 54.92039 | 19.90251 | 270° | 95km/h | 1172m | 8m/s | -52.5°C | 0% | 42.9hPa | 2.3V | 00:00:00 | 00:00:00 | 00:00:00 | |
| AA1-15 | 2026-08-30 12:23:12 | 54.92047 | 19.90340 | 270° | 95km/h | 1159m | 8.1m/s | -52.6°C | 0% | 42.9hPa | 2.3V | 00:00:00 | 00:00:00 | 00:00:00 | |
| AA1-15 | 2026-08-30 12:23:11 | 54.92049 | 19.90385 | 270° | 95km/h | 1149m | 8.1m/s | -52.7°C | 0% | 43hPa | 2.3V | 00:00:00 | 00:00:00 | 00:00:00 | |
| AA1-15 | 2026-08-30 12:23:10 | 54.92054 | 19.90476 | 270° | 95km/h | 1130m | 8m/s | -52.8°C | 0% | 43.1hPa | 2.3V | 00:00:00 | 00:00:00 | 00:00:00 | |
| AA1-15 | 2026-08-30 12:23:06 | 54.92080 | 19.90631 | 256° | 93km/h | 1139m | 8.1m/s | -52.9°C | 0% | 43.2hPa | 2.3V | 00:00:00 | 00:00:00 | 00:00:00 | |
| AA1-15 | 2026-08-30 12:23:05 | 54.92113 | 19.90733 | 239° | 97km/h | 1177m | 8.2m/s | -52.9°C | 0% | 43.3hPa | 2.3V | 00:00:00 | 00:00:00 | 00:00:00 | |
| AA1-15 | 2026-08-30 12:23:03 | 54.92148 | 19.90791 | 228° | 95km/h | 1205m | 8.1m/s | -52.9°C | 0% | 43.3hPa | 2.3V | 00:00:00 | 00:00:00 | 00:00:00 | |
| AA1-15 | 2026-08-30 12:23:01 | 54.92517 | 19.91147 | 204° | 95km/h | 1501m | 7.5m/s | -53°C | 0% | 43.4hPa | 2.3V | 00:00:00 | 00:00:00 | 00:00:00 | |
| AA1-15 | 2026-08-30 12:23:00 | 54.92634 | 19.91309 | 195° | 91km/h | 1434m | 1.5m/s | -53°C | 0% | 43.4hPa | 2.3V | 00:00:00 | 00:00:00 | 00:00:00 | |
| AA1-15 | 2026-08-30 12:22:55 | 54.88437 | 20.04040 | 17° | 5km/h | 159087m | 8.3m/s | -53°C | 0% | 43.6hPa | 2.3V | 00:00:00 | 00:00:00 | 00:00:00 | |
| AA1-15 | 2026-08-30 12:22:44 | 54.88404 | 20.04104 | 0° | 16km/h | 3062m | 8m/s | -53.2°C | 0% | 44hPa | 2.3V | 00:00:00 | 00:00:00 | 00:00:00 | |
| AA1-15 | 2026-08-30 12:22:33 | 54.88417 | 20.04102 | 360° | 18km/h | 2915m | 8.1m/s | -52.9°C | 0% | 44.5hPa | 2.3V | 00:00:00 | 00:00:00 | 00:00:00 | |
| AA1-15 | 2026-08-30 12:22:21 | 54.88424 | 20.04089 | 1° | 15km/h | 2839m | 8.6m/s | -53.1°C | 0% | 44.9hPa | 2.3V | 00:00:00 | 00:00:00 | 00:00:00 | |
| AA1-15 | 2026-08-30 12:22:11 | 54.88366 | 20.04062 | 0° | 9km/h | 2700m | 8.1m/s | -52.9°C | 0% | 45.4hPa | 2.3V | 00:00:00 | 00:00:00 | 00:00:00 | |
| AA1-15 | 2026-08-30 12:22:01 | 54.88354 | 20.04053 | 0° | 16km/h | 2620m | 8.1m/s | -52.6°C | 0% | 45.8hPa | 2.3V | 00:00:00 | 00:00:00 | 00:00:00 | |
| AA1-15 | 2026-08-30 12:21:50 | 54.88322 | 20.04082 | 360° | 16km/h | 2550m | 8m/s | -52.3°C | 0% | 46.2hPa | 2.3V | 00:00:00 | 00:00:00 | 00:00:00 | |
| AA1-15 | 2026-08-30 12:21:39 | 54.88306 | 20.04085 | 359° | 11km/h | 2414m | 7.8m/s | -52.3°C | 0% | 46.6hPa | 2.3V | 00:00:00 | 00:00:00 | 00:00:00 | |
| AA1-15 | 2026-08-30 12:21:27 | 54.88248 | 20.04092 | 0° | 9km/h | 2336m | 8m/s | -52.4°C | 0% | 47.1hPa | 2.3V | 00:00:00 | 00:00:00 | 00:00:00 | |
| AA1-15 | 2026-08-30 12:21:16 | 54.88213 | 20.04097 | 360° | 16km/h | 2264m | 7.9m/s | -52.6°C | 0% | 47.6hPa | 2.3V | 00:00:00 | 00:00:00 | 00:00:00 | |
| AA1-15 | 2026-08-30 12:21:05 | 54.88167 | 20.04098 | 0° | 16km/h | 2206m | 8.1m/s | -52.6°C | 0% | 48hPa | 2.3V | 00:00:00 | 00:00:00 | 00:00:00 | |
| AA1-15 | 2026-08-30 12:20:54 | 54.88111 | 20.04098 | 0° | 11km/h | 2129m | 8.1m/s | -52.6°C | 0% | 48.5hPa | 2.3V | 00:00:00 | 00:00:00 | 00:00:00 | |
| AA1-15 | 2026-08-30 12:20:44 | 54.88032 | 20.04102 | 0° | 9km/h | 2052m | 8m/s | -52.8°C | 0% | 48.9hPa | 2.3V | 00:00:00 | 00:00:00 | 00:00:00 | |
| AA1-15 | 2026-08-30 12:20:34 | 54.87842 | 20.04154 | 346° | 91km/h | 1971m | 8.3m/s | -52.7°C | 0% | 49.4hPa | 2.3V | 00:00:00 | 00:00:00 | 00:00:00 | |
| AA1-15 | 2026-08-30 12:20:31 | 54.87775 | 20.04178 | 343° | 95km/h | 1946m | 8.2m/s | -52.7°C | 0% | 49.5hPa | 2.3V | 00:00:00 | 00:00:00 | 00:00:00 | |
| AA1-15 | 2026-08-30 12:20:29 | 54.87752 | 20.04196 | 341° | 95km/h | 1907m | 8.8m/s | -52.7°C | 0% | 49.6hPa | 2.3V | 00:00:00 | 00:00:00 | 00:00:00 | |
| AA1-15 | 2026-08-30 12:20:28 | 54.87754 | 20.04203 | 335° | 80km/h | 1872m | 11.6m/s | -52.7°C | 0% | 49.6hPa | 2.3V | 00:00:00 | 00:00:00 | 00:00:00 | |
| AA1-15 | 2026-08-30 12:20:24 | 54.87691 | 20.04262 | 334° | 99km/h | 1796m | 7.9m/s | -52.7°C | 0% | 49.8hPa | 2.3V | 00:00:00 | 00:00:00 | 00:00:00 | |
| AA1-15 | 2026-08-30 12:20:23 | 54.87665 | 20.04281 | 331° | 93km/h | 1785m | 7.8m/s | -52.8°C | 0% | 49.9hPa | 2.3V | 00:00:00 | 00:00:00 | 00:00:00 | |
| AA1-15 | 2026-08-30 12:20:21 | 54.87641 | 20.04301 | 330° | 95km/h | 1775m | 8.1m/s | -52.8°C | 0% | 49.9hPa | 2.3V | 00:00:00 | 00:00:00 | 00:00:00 | |
| AA1-15 | 2026-08-30 12:20:20 | 54.87594 | 20.04343 | 327° | 95km/h | 1753m | 8.2m/s | -52.9°C | 0% | 50hPa | 2.3V | 00:00:00 | 00:00:00 | 00:00:00 | |
| AA1-15 | 2026-08-30 12:20:19 | 54.87569 | 20.04366 | 326° | 97km/h | 1743m | 8.1m/s | -52.9°C | 0% | 50hPa | 2.3V | 00:00:00 | 00:00:00 | 00:00:00 | |
| AA1-15 | 2026-08-30 12:20:18 | 54.87544 | 20.04390 | 324° | 97km/h | 1734m | 8m/s | -52.9°C | 0% | 50hPa | 2.3V | 00:00:00 | 00:00:00 | 00:00:00 | |
| AA1-15 | 2026-08-30 12:20:16 | 54.87503 | 20.04445 | 319° | 93km/h | 1721m | 8.2m/s | -52.8°C | 0% | 50.2hPa | 2.3V | 00:00:00 | 00:00:00 | 00:00:00 | |
| AA1-15 | 2026-08-30 12:20:14 | 54.87474 | 20.04503 | 315° | 93km/h | 1707m | 8.1m/s | -52.7°C | 0% | 50.2hPa | 2.3V | 00:00:00 | 00:00:00 | 00:00:00 | |
| AA1-15 | 2026-08-30 12:20:13 | 54.87461 | 20.04533 | 316° | 93km/h | 1700m | 8m/s | -52.6°C | 0% | 50.3hPa | 2.3V | 00:00:00 | 00:00:00 | 00:00:00 | |
| AA1-15 | 2026-08-30 12:20:12 | 54.87450 | 20.04564 | 311° | 95km/h | 1693m | 8.2m/s | -52.7°C | 0% | 50.3hPa | 2.3V | 00:00:00 | 00:00:00 | 00:00:00 | |
| AA1-15 | 2026-08-30 12:20:10 | 54.87410 | 20.04626 | 311° | 97km/h | 1673m | 8m/s | -52.7°C | 0% | 50.4hPa | 2.3V | 00:00:00 | 00:00:00 | 00:00:00 | |
| AA1-15 | 2026-08-30 12:20:08 | 54.87372 | 20.04689 | 309° | 95km/h | 1654m | 8.1m/s | -52.7°C | 0% | 50.5hPa | 2.3V | 00:00:00 | 00:00:00 | 00:00:00 | |
| AA1-15 | 2026-08-30 12:20:07 | 54.87359 | 20.04723 | 306° | 95km/h | 1647m | 8.1m/s | -52.7°C | 0% | 50.5hPa | 2.3V | 00:00:00 | 00:00:00 | 00:00:00 | |
| AA1-15 | 2026-08-30 12:20:06 | 54.87340 | 20.04756 | 305° | 99km/h | 1636m | 8m/s | -52.6°C | 0% | 50.5hPa | 2.3V | 00:00:00 | 00:00:00 | 00:00:00 | |
| AA1-15 | 2026-08-30 12:20:04 | 54.87306 | 20.04825 | 303° | 97km/h | 1617m | 8m/s | -52.6°C | 0% | 50.7hPa | 2.3V | 00:00:00 | 00:00:00 | 00:00:00 | |
| AA1-15 | 2026-08-30 12:20:02 | 54.87270 | 20.04898 | 300° | 99km/h | 1597m | 8m/s | -52.6°C | 0% | 50.7hPa | 2.3V | 00:00:00 | 00:00:00 | 00:00:00 | |
| AA1-15 | 2026-08-30 12:20:01 | 54.87253 | 20.04933 | 297° | 93km/h | 1586m | 8.1m/s | -52.6°C | 0% | 50.8hPa | 2.3V | 00:00:00 | 00:00:00 | 00:00:00 | |
| AA1-15 | 2026-08-30 12:20:00 | 54.87241 | 20.04970 | 295° | 95km/h | 1572m | 8.2m/s | -52.6°C | 0% | 50.8hPa | 2.3V | 00:00:00 | 00:00:00 | 00:00:00 | |
| AA1-15 | 2026-08-30 12:19:58 | 54.87231 | 20.05009 | 294° | 99km/h | 1563m | 8.1m/s | -52.5°C | 0% | 50.9hPa | 2.3V | 00:00:00 | 00:00:00 | 00:00:00 | |
| AA1-15 | 2026-08-30 12:19:57 | 54.87226 | 20.05088 | 289° | 93km/h | 1545m | 8.4m/s | -52.5°C | 0% | 51hPa | 2.3V | 00:00:00 | 00:00:00 | 00:00:00 | |
| AA1-15 | 2026-08-30 12:19:54 | 54.87199 | 20.05200 | 288° | 95km/h | 1525m | 8.1m/s | -52.5°C | 0% | 51.1hPa | 2.3V | 00:00:00 | 00:00:00 | 00:00:00 | |
| AA1-15 | 2026-08-30 12:19:53 | 54.87197 | 20.05242 | 284° | 97km/h | 1521m | 8.2m/s | -52.4°C | 0% | 51.1hPa | 2.3V | 00:00:00 | 00:00:00 | 00:00:00 | |
| AA1-15 | 2026-08-30 12:19:51 | 54.87204 | 20.05375 | 280° | 93km/h | 1509m | 8.1m/s | -52.4°C | 0% | 51.3hPa | 2.3V | 00:00:00 | 00:00:00 | 00:00:00 | |
| AA1-15 | 2026-08-30 12:19:50 | 54.87206 | 20.05418 | 280° | 95km/h | 1505m | 8.1m/s | -52.5°C | 0% | 51.2hPa | 2.3V | 00:00:00 | 00:00:00 | 00:00:00 | |
| AA1-15 | 2026-08-30 12:19:46 | 54.87213 | 20.05544 | 276° | 97km/h | 1479m | 8.1m/s | -52.5°C | 0% | 51.4hPa | 2.3V | 00:00:00 | 00:00:00 | 00:00:00 | |
| AA1-15 | 2026-08-30 12:19:44 | 54.87211 | 20.05586 | 273° | 95km/h | 1471m | 8.1m/s | -52.5°C | 0% | 51.5hPa | 2.3V | 00:00:00 | 00:00:00 | 00:00:00 | |
| AA1-15 | 2026-08-30 12:19:43 | 54.87215 | 20.05672 | 267° | 99km/h | 1455m | 8m/s | -52.6°C | 0% | 51.5hPa | 2.3V | 00:00:00 | 00:00:00 | 00:00:00 | |
| AA1-15 | 2026-08-30 12:19:41 | 54.87220 | 20.05758 | 266° | 97km/h | 1439m | 8.2m/s | -52.7°C | 0% | 51.6hPa | 2.3V | 00:00:00 | 00:00:00 | 00:00:00 | |
| AA1-15 | 2026-08-30 12:19:39 | 54.87225 | 20.05842 | 263° | 97km/h | 1423m | 8.1m/s | -52.8°C | 0% | 51.7hPa | 2.3V | 00:00:00 | 00:00:00 | 00:00:00 | |
| AA1-15 | 2026-08-30 12:19:37 | 54.87232 | 20.05927 | 262° | 99km/h | 1406m | 8.1m/s | -52.9°C | 0% | 51.8hPa | 2.3V | 00:00:00 | 00:00:00 | 00:00:00 | |
| AA1-15 | 2026-08-30 12:19:30 | 54.87299 | 20.06216 | 248° | 97km/h | 1355m | 8m/s | -53°C | 0% | 52.1hPa | 2.3V | 00:00:00 | 00:00:00 | 00:00:00 | |
| AA1-15 | 2026-08-30 12:19:24 | 54.87376 | 20.06454 | 238° | 99km/h | 1325m | 7.9m/s | -53.1°C | 0% | 52.3hPa | 2.3V | 00:00:00 | 00:00:00 | 00:00:00 | |
| AA1-15 | 2026-08-30 12:19:22 | 54.87409 | 20.06520 | 234° | 95km/h | 1316m | 8.2m/s | -53.1°C | 0% | 52.4hPa | 2.3V | 00:00:00 | 00:00:00 | 00:00:00 | |
| AA1-15 | 2026-08-30 12:19:19 | 54.87456 | 20.06616 | 232° | 97km/h | 1309m | 8.5m/s | -53.1°C | 0% | 52.5hPa | 2.3V | 00:00:00 | 00:00:00 | 00:00:00 | |
| AA1-15 | 2026-08-30 12:19:11 | 54.87541 | 20.06887 | 219° | 95km/h | 1274m | 8.2m/s | -52.8°C | 0% | 52.9hPa | 2.3V | 00:00:00 | 00:00:00 | 00:00:00 | |
| AA1-15 | 2026-08-30 12:19:08 | 54.87604 | 20.06960 | 214° | 93km/h | 1243m | 8m/s | -52.8°C | 0% | 53hPa | 2.3V | 00:00:00 | 00:00:00 | 00:00:00 | |
| AA1-15 | 2026-08-30 12:19:07 | 54.87627 | 20.06981 | 211° | 99km/h | 1232m | 8.1m/s | -52.8°C | 0% | 53.1hPa | 2.3V | 00:00:00 | 00:00:00 | 00:00:00 | |
| AA1-15 | 2026-08-30 12:19:05 | 54.87674 | 20.07022 | 209° | 93km/h | 1209m | 8m/s | -52.7°C | 0% | 53.2hPa | 2.3V | 00:00:00 | 00:00:00 | 00:00:00 | |
| AA1-15 | 2026-08-30 12:19:02 | 54.87724 | 20.07058 | 205° | 97km/h | 1185m | 8m/s | -52.6°C | 0% | 53.2hPa | 2.3V | 00:00:00 | 00:00:00 | 00:00:00 | |
| AA1-15 | 2026-08-30 12:19:01 | 54.87750 | 20.07074 | 204° | 95km/h | 1173m | 8.1m/s | -52.7°C | 0% | 53.3hPa | 2.3V | 00:00:00 | 00:00:00 | 00:00:00 | |
| AA1-15 | 2026-08-30 12:18:58 | 54.87866 | 20.07141 | 196° | 100km/h | 1117m | 7.9m/s | -52.7°C | 0% | 53.5hPa | 2.3V | 00:00:00 | 00:00:00 | 00:00:00 | |
| AA1-15 | 2026-08-30 12:18:57 | 54.87908 | 20.07159 | 192° | 97km/h | 1092m | 8m/s | -52.7°C | 0% | 53.6hPa | 2.3V | 00:00:00 | 00:00:00 | 00:00:00 | |
| AA1-15 | 2026-08-30 12:18:55 | 54.87927 | 20.07165 | 193° | 97km/h | 1078m | 8.3m/s | -52.7°C | 0% | 53.6hPa | 2.3V | 00:00:00 | 00:00:00 | 00:00:00 | |
| AA1-15 | 2026-08-30 12:18:51 | 54.88005 | 20.07177 | 187° | 95km/h | 1044m | 8.2m/s | -52.8°C | 0% | 53.8hPa | 2.3V | 00:00:00 | 00:00:00 | 00:00:00 | |
| AA1-15 | 2026-08-30 12:18:50 | 54.88034 | 20.07180 | 186° | 99km/h | 1035m | 7.8m/s | -52.9°C | 0% | 53.9hPa | 2.3V | 00:00:00 | 00:00:00 | 00:00:00 | |
| AA1-15 | 2026-08-30 12:18:48 | 54.88118 | 20.07171 | 179° | 97km/h | 1000m | 8.7m/s | -52.9°C | 0% | 54hPa | 2.3V | 00:00:00 | 00:00:00 | 00:00:00 | |
| AA1-15 | 2026-08-30 12:18:46 | 54.88143 | 20.07167 | 180° | 95km/h | 990m | 8.7m/s | -52.9°C | 0% | 54hPa | 2.3V | 00:00:00 | 00:00:00 | 00:00:00 | |
| AA1-15 | 2026-08-30 12:18:41 | 54.88240 | 20.07140 | 174° | 104km/h | 953m | 8.8m/s | -52.8°C | 0% | 54.2hPa | 2.3V | 00:00:00 | 00:00:00 | 00:00:00 | |
| AA1-15 | 2026-08-30 12:18:39 | 54.88302 | 20.07125 | 167° | 99km/h | 939m | 8.2m/s | -52.8°C | 0% | 54.3hPa | 2.3V | 00:00:00 | 00:00:00 | 00:00:00 | |
| AA1-15 | 2026-08-30 12:18:38 | 54.88322 | 20.07118 | 166° | 93km/h | 936m | 8.1m/s | -52.8°C | 0% | 54.4hPa | 2.3V | 00:00:00 | 00:00:00 | 00:00:00 | |
| AA1-15 | 2026-08-30 12:18:36 | 54.88363 | 20.07074 | 164° | 93km/h | 929m | 8m/s | -52.8°C | 0% | 54.5hPa | 2.3V | 00:00:00 | 00:00:00 | 00:00:00 | |
| AA1-15 | 2026-08-30 12:18:35 | 54.88385 | 20.07056 | 162° | 95km/h | 923m | 8.1m/s | -52.8°C | 0% | 54.5hPa | 2.3V | 00:00:00 | 00:00:00 | 00:00:00 | |
| AA1-15 | 2026-08-30 12:18:32 | 54.88450 | 20.07000 | 155° | 95km/h | 903m | 7.9m/s | -52.7°C | 0% | 54.6hPa | 2.3V | 00:00:00 | 00:00:00 | 00:00:00 | |
| AA1-15 | 2026-08-30 12:18:31 | 54.88472 | 20.06982 | 155° | 97km/h | 896m | 8m/s | -52.7°C | 0% | 54.7hPa | 2.3V | 00:00:00 | 00:00:00 | 00:00:00 | |
| AA1-15 | 2026-08-30 12:18:25 | 54.88601 | 20.06863 | 145° | 95km/h | 853m | 8m/s | -52.6°C | 0% | 54.9hPa | 2.3V | 00:00:00 | 00:00:00 | 00:00:00 | |
| AA1-15 | 2026-08-30 12:18:23 | 54.88638 | 20.06812 | 141° | 95km/h | 843m | 8.1m/s | -52.6°C | 0% | 55.1hPa | 2.3V | 00:00:00 | 00:00:00 | 00:00:00 | |
| AA1-15 | 2026-08-30 12:18:21 | 54.88675 | 20.06759 | 142° | 97km/h | 829m | 8m/s | -52.6°C | 0% | 55.1hPa | 2.3V | 00:00:00 | 00:00:00 | 00:00:00 | |
| AA1-15 | 2026-08-30 12:18:19 | 54.88707 | 20.06704 | 136° | 91km/h | 816m | 8m/s | -52.5°C | 0% | 55.2hPa | 2.3V | 00:00:00 | 00:00:00 | 00:00:00 | |
| AA1-15 | 2026-08-30 12:18:18 | 54.88721 | 20.06676 | 134° | 95km/h | 810m | 8m/s | -52.5°C | 0% | 55.3hPa | 2.3V | 00:00:00 | 00:00:00 | 00:00:00 | |
| AA1-15 | 2026-08-30 12:18:16 | 54.88748 | 20.06618 | 130° | 97km/h | 796m | 7.9m/s | -52.4°C | 0% | 55.3hPa | 2.3V | 00:00:00 | 00:00:00 | 00:00:00 | |
| AA1-15 | 2026-08-30 12:18:08 | 54.88793 | 20.06471 | 119° | 97km/h | 742m | 8m/s | -52.3°C | 0% | 55.7hPa | 2.3V | 00:00:00 | 00:00:00 | 00:00:00 | |
| AA1-15 | 2026-08-30 12:18:06 | 54.88808 | 20.06394 | 114° | 91km/h | 725m | 7.9m/s | -52.3°C | 0% | 55.8hPa | 2.3V | 00:00:00 | 00:00:00 | 00:00:00 | |
| AA1-15 | 2026-08-30 12:18:04 | 54.88824 | 20.06317 | 116° | 95km/h | 707m | 8m/s | -52.3°C | 0% | 55.9hPa | 2.3V | 00:00:00 | 00:00:00 | 00:00:00 | |
| AA1-15 | 2026-08-30 12:18:03 | 54.88830 | 20.06277 | 112° | 95km/h | 698m | 8m/s | -52.3°C | 0% | 55.9hPa | 2.3V | 00:00:00 | 00:00:00 | 00:00:00 | |
| AA1-15 | 2026-08-30 12:18:02 | 54.88836 | 20.06236 | 109° | 97km/h | 689m | 8m/s | -52.4°C | 0% | 56hPa | 2.3V | 00:00:00 | 00:00:00 | 00:00:00 | |
| AA1-15 | 2026-08-30 12:18:01 | 54.88841 | 20.06195 | 110° | 97km/h | 680m | 8m/s | -52.4°C | 0% | 56hPa | 2.3V | 00:00:00 | 00:00:00 | 00:00:00 | |
| AA1-15 | 2026-08-30 12:17:59 | 54.88846 | 20.06154 | 107° | 95km/h | 671m | 8m/s | -52.5°C | 0% | 56.1hPa | 2.3V | 00:00:00 | 00:00:00 | 00:00:00 | |
| AA1-15 | 2026-08-30 12:17:58 | 54.88865 | 20.06074 | 105° | 97km/h | 660m | 8m/s | -52.7°C | 0% | 56.1hPa | 2.3V | 00:00:00 | 00:00:00 | 00:00:00 | |
| AA1-15 | 2026-08-30 12:17:57 | 54.88876 | 20.06034 | 102° | 99km/h | 655m | 8m/s | -52.9°C | 0% | 56.2hPa | 2.3V | 00:00:00 | 00:00:00 | 00:00:00 | |
| AA1-15 | 2026-08-30 12:17:53 | 54.88906 | 20.05884 | 98° | 97km/h | 649m | 7.9m/s | -53.2°C | 0% | 56.4hPa | 2.3V | 00:00:00 | 00:00:00 | 00:00:00 | |
| AA1-15 | 2026-08-30 12:17:51 | 54.88903 | 20.05797 | 92° | 95km/h | 631m | 7.9m/s | -53.2°C | 0% | 56.5hPa | 2.3V | 00:00:00 | 00:00:00 | 00:00:00 | |
| AA1-15 | 2026-08-30 12:17:49 | 54.88901 | 20.05754 | 93° | 95km/h | 622m | 8.1m/s | -53.3°C | 0% | 56.5hPa | 2.3V | 00:00:00 | 00:00:00 | 00:00:00 | |
| AA1-15 | 2026-08-30 12:17:49 | 54.88898 | 20.05710 | 90° | 95km/h | 613m | 7.9m/s | -53.2°C | 0% | 56.6hPa | 2.3V | 00:00:00 | 00:00:00 | 00:00:00 | |
| AA1-15 | 2026-08-30 12:17:48 | 54.88895 | 20.05667 | 88° | 95km/h | 604m | 8m/s | -53.3°C | 0% | 56.6hPa | 2.3V | 00:00:00 | 00:00:00 | 00:00:00 | |
| AA1-15 | 2026-08-30 12:17:45 | 54.88877 | 20.05533 | 83° | 97km/h | 575m | 8m/s | -53.1°C | 0% | 56.8hPa | 2.3V | 00:00:00 | 00:00:00 | 00:00:00 | |
| AA1-15 | 2026-08-30 12:17:44 | 54.88871 | 20.05449 | 81° | 97km/h | 559m | 7.9m/s | -53.1°C | 0% | 56.8hPa | 2.3V | 00:00:00 | 00:00:00 | 00:00:00 | |
| AA1-15 | 2026-08-30 12:17:40 | 54.88863 | 20.05324 | 77° | 97km/h | 534m | 8m/s | -52.9°C | 0% | 57hPa | 2.3V | 00:00:00 | 00:00:00 | 00:00:00 | |
| AA1-15 | 2026-08-30 12:17:38 | 54.88857 | 20.05244 | 73° | 95km/h | 516m | 8m/s | -52.9°C | 0% | 57.1hPa | 2.3V | 00:00:00 | 00:00:00 | 00:00:00 | |
| AA1-15 | 2026-08-30 12:17:37 | 54.88853 | 20.05204 | 71° | 97km/h | 506m | 8.1m/s | -52.8°C | 0% | 57.2hPa | 2.3V | 00:00:00 | 00:00:00 | 00:00:00 | |
| AA1-15 | 2026-08-30 12:17:34 | 54.88836 | 20.05085 | 66° | 99km/h | 473m | 8.1m/s | -52.7°C | 0% | 57.3hPa | 2.3V | 00:00:00 | 00:00:00 | 00:00:00 | |
| AA1-15 | 2026-08-30 12:17:27 | 54.88761 | 20.04842 | 54° | 95km/h | 427m | 8m/s | -52.7°C | 0% | 57.6hPa | 2.3V | 00:00:00 | 00:00:00 | 00:00:00 | |
| AA1-15 | 2026-08-30 12:17:21 | 53.14154 | 39.13665 | 29° | 95km/h | 159087m | 8.1m/s | -53°C | 0% | 58hPa | 2.3V | 00:00:00 | 00:00:00 | 00:00:00 | |
| AA1-15 | 2026-08-30 12:17:10 | 54.88294 | 20.04250 | 29° | 95km/h | 352m | 8.1m/s | -52.8°C | 0% | 58.4hPa | 2.3V | 00:00:00 | 00:00:00 | 00:00:00 | |
| AA1-15 | 2026-08-30 12:17:00 | 54.95246 | 19.26161 | 0° | 0km/h | 159087m | 0m/s | -52.8°C | 0% | 58.9hPa | 2.3V | 00:00:00 | 00:00:00 | 00:00:00 | |
| AA1-15 | 2026-08-30 12:16:49 | 54.95237 | 19.26137 | 55° | 7km/h | 159087m | 8.2m/s | -52.6°C | 0% | 59.4hPa | 2.3V | 00:00:00 | 00:00:00 | 00:00:00 | |
| AA1-15 | 2026-08-30 12:16:39 | 54.95219 | 19.26173 | 268° | 16km/h | 2506m | 8.4m/s | -52.4°C | 0% | 59.9hPa | 2.3V | 00:00:00 | 00:00:00 | 00:00:00 | |
| AA1-15 | 2026-08-30 12:16:28 | 54.95206 | 19.26221 | 268° | 13km/h | 2386m | 8.4m/s | -52°C | 0% | 60.4hPa | 2.3V | 00:00:00 | 00:00:00 | 00:00:00 | |
| AA1-15 | 2026-08-30 12:16:14 | 54.95221 | 19.26239 | 269° | 13km/h | 2264m | 8.1m/s | -51.6°C | 0% | 61.1hPa | 2.3V | 00:00:00 | 00:00:00 | 00:00:00 | |
| AA1-15 | 2026-08-30 12:16:02 | 54.95245 | 19.26270 | 270° | 13km/h | 2169m | 8m/s | -51.4°C | 0% | 61.7hPa | 2.3V | 00:00:00 | 00:00:00 | 00:00:00 | |
| AA1-15 | 2026-08-30 12:15:52 | 54.95237 | 19.26462 | 249° | 11km/h | 159087m | 10.8m/s | -51.2°C | 0% | 62.2hPa | 2.3V | 00:00:00 | 00:00:00 | 00:00:00 | |
| AA1-15 | 2026-08-30 12:15:34 | 54.95243 | 19.26541 | 271° | 13km/h | 1943m | 8m/s | -50.8°C | 0% | 63hPa | 2.3V | 00:00:00 | 00:00:00 | 00:00:00 | |
| AA1-15 | 2026-08-30 12:15:33 | 54.95245 | 19.26546 | 269° | 16km/h | 1922m | 8.4m/s | -50.7°C | 0% | 63.1hPa | 2.3V | 00:00:00 | 00:00:00 | 00:00:00 | |
| AA1-15 | 2026-08-30 12:15:30 | 54.95244 | 19.26557 | 268° | 16km/h | 1906m | 8.4m/s | -50.7°C | 0% | 63.2hPa | 2.3V | 00:00:00 | 00:00:00 | 00:00:00 | |
| AA1-15 | 2026-08-30 12:15:28 | 54.95242 | 19.26567 | 269° | 13km/h | 1890m | 8.2m/s | -50.7°C | 0% | 63.3hPa | 2.3V | 00:00:00 | 00:00:00 | 00:00:00 | |
| AA1-15 | 2026-08-30 12:15:27 | 54.95244 | 19.26570 | 270° | 13km/h | 1877m | 8.1m/s | -50.6°C | 0% | 63.4hPa | 2.3V | 00:00:00 | 00:00:00 | 00:00:00 | |
| AA1-15 | 2026-08-30 12:15:26 | 54.95244 | 19.26573 | 270° | 13km/h | 1866m | 8.1m/s | -50.7°C | 0% | 63.4hPa | 2.3V | 00:00:00 | 00:00:00 | 00:00:00 | |
| AA1-15 | 2026-08-30 12:15:23 | 54.95244 | 19.26588 | 270° | 15km/h | 1839m | 8.4m/s | -51°C | 0% | 63.6hPa | 2.3V | 00:00:00 | 00:00:00 | 00:00:00 | |
| AA1-15 | 2026-08-30 12:15:19 | 54.95243 | 19.26603 | 269° | 13km/h | 1797m | 8.2m/s | -51.3°C | 0% | 63.8hPa | 2.3V | 00:00:00 | 00:00:00 | 00:00:00 | |
| AA1-15 | 2026-08-30 12:15:17 | 54.95241 | 19.26615 | 269° | 15km/h | 1764m | 8.1m/s | -51.6°C | 0% | 63.9hPa | 2.3V | 00:00:00 | 00:00:00 | 00:00:00 | |
| AA1-15 | 2026-08-30 12:15:14 | 54.95240 | 19.26622 | 270° | 15km/h | 1741m | 8.1m/s | -51.7°C | 0% | 64hPa | 2.3V | 00:00:00 | 00:00:00 | 00:00:00 | |
| AA1-15 | 2026-08-30 12:15:12 | 54.95237 | 19.26631 | 269° | 13km/h | 1717m | 8.2m/s | -51.7°C | 0% | 64.1hPa | 2.3V | 00:00:00 | 00:00:00 | 00:00:00 | |
| AA1-15 | 2026-08-30 12:15:11 | 54.95231 | 19.26638 | 270° | 13km/h | 1685m | 8.3m/s | -51.7°C | 0% | 64.2hPa | 2.3V | 00:00:00 | 00:00:00 | 00:00:00 | |
| AA1-15 | 2026-08-30 12:15:09 | 54.95227 | 19.26642 | 270° | 13km/h | 1669m | 8.1m/s | -51.8°C | 0% | 64.2hPa | 2.3V | 00:00:00 | 00:00:00 | 00:00:00 | |
| AA1-15 | 2026-08-30 12:15:08 | 54.95223 | 19.26645 | 270° | 13km/h | 1652m | 8.2m/s | -51.8°C | 0% | 64.3hPa | 2.3V | 00:00:00 | 00:00:00 | 00:00:00 | |
| AA1-15 | 2026-08-30 12:15:07 | 54.95210 | 19.26657 | 271° | 13km/h | 1602m | 8.3m/s | -51.8°C | 0% | 64.4hPa | 2.3V | 00:00:00 | 00:00:00 | 00:00:00 | |
| AA1-15 | 2026-08-30 12:15:03 | 54.95209 | 19.26665 | 270° | 13km/h | 1581m | 8m/s | -51.9°C | 0% | 64.5hPa | 2.3V | 00:00:00 | 00:00:00 | 00:00:00 | |
| AA1-15 | 2026-08-30 12:15:01 | 54.95210 | 19.26668 | 269° | 13km/h | 1563m | 8.3m/s | -51.9°C | 0% | 64.6hPa | 2.3V | 00:00:00 | 00:00:00 | 00:00:00 | |
| AA1-15 | 2026-08-30 12:14:58 | 54.95184 | 19.26681 | 270° | 13km/h | 1499m | 8m/s | -51.9°C | 0% | 64.8hPa | 2.3V | 00:00:00 | 00:00:00 | 00:00:00 | |
| AA1-15 | 2026-08-30 12:14:57 | 54.95183 | 19.26684 | 270° | 16km/h | 1489m | 8.1m/s | -51.9°C | 0% | 64.8hPa | 2.3V | 00:00:00 | 00:00:00 | 00:00:00 | |
| AA1-15 | 2026-08-30 12:14:55 | 54.95162 | 19.26695 | 269° | 15km/h | 1449m | 8.2m/s | -51.8°C | 0% | 64.9hPa | 2.3V | 00:00:00 | 00:00:00 | 00:00:00 | |
| AA1-15 | 2026-08-30 12:14:54 | 54.95159 | 19.26698 | 271° | 13km/h | 1438m | 8.5m/s | -51.8°C | 0% | 65hPa | 2.3V | 00:00:00 | 00:00:00 | 00:00:00 | |
| AA1-15 | 2026-08-30 12:14:52 | 54.95149 | 19.26709 | 270° | 16km/h | 1420m | 8.4m/s | -51.8°C | 0% | 65.1hPa | 2.3V | 00:00:00 | 00:00:00 | 00:00:00 | |
| AA1-15 | 2026-08-30 12:14:51 | 54.95146 | 19.26717 | 271° | 13km/h | 1412m | 8.4m/s | -51.8°C | 0% | 65.1hPa | 2.3V | 00:00:00 | 00:00:00 | 00:00:00 | |
| AA1-15 | 2026-08-30 12:14:48 | 54.95142 | 19.26742 | 270° | 15km/h | 1390m | 8m/s | -51.9°C | 0% | 65.3hPa | 2.3V | 00:00:00 | 00:00:00 | 00:00:00 | |
| AA1-15 | 2026-08-30 12:14:47 | 54.95140 | 19.26752 | 269° | 13km/h | 1382m | 8.2m/s | -51.9°C | 0% | 65.3hPa | 2.3V | 00:00:00 | 00:00:00 | 00:00:00 | |
| AA1-15 | 2026-08-30 12:14:45 | 54.95137 | 19.26775 | 270° | 16km/h | 1368m | 8.2m/s | -52°C | 0% | 65.5hPa | 2.3V | 00:00:00 | 00:00:00 | 00:00:00 | |
| AA1-15 | 2026-08-30 12:14:44 | 54.95136 | 19.26789 | 269° | 13km/h | 1361m | 8.2m/s | -51.9°C | 0% | 65.5hPa | 2.3V | 00:00:00 | 00:00:00 | 00:00:00 | |
| AA1-15 | 2026-08-30 12:14:42 | 54.95134 | 19.26826 | 270° | 13km/h | 1348m | 8.4m/s | -51.9°C | 0% | 65.6hPa | 2.3V | 00:00:00 | 00:00:00 | 00:00:00 | |
| AA1-15 | 2026-08-30 12:14:40 | 54.95133 | 19.26922 | 269° | 95km/h | 1328m | 8.6m/s | -51.9°C | 0% | 65.8hPa | 2.3V | 00:00:00 | 00:00:00 | 00:00:00 | |
| AA1-15 | 2026-08-30 12:14:39 | 54.95138 | 19.26963 | 260° | 97km/h | 1314m | 9m/s | -51.9°C | 0% | 65.8hPa | 2.3V | 00:00:00 | 00:00:00 | 00:00:00 | |
| AA1-15 | 2026-08-30 12:14:37 | 54.95142 | 19.27006 | 252° | 95km/h | 1311m | 8.4m/s | -51.9°C | 0% | 65.9hPa | 2.3V | 00:00:00 | 00:00:00 | 00:00:00 | |
| AA1-15 | 2026-08-30 12:14:35 | 54.95157 | 19.27087 | 239° | 97km/h | 1306m | 9.1m/s | -52°C | 0% | 65.9hPa | 2.3V | 00:00:00 | 00:00:00 | 00:00:00 | |
| AA1-15 | 2026-08-30 12:14:34 | 54.95198 | 19.27194 | 226° | 97km/h | 1296m | 9.1m/s | -51.9°C | 0% | 66.1hPa | 2.3V | 00:00:00 | 00:00:00 | 00:00:00 | |
| AA1-15 | 2026-08-30 12:14:30 | 54.95232 | 19.27255 | 210° | 97km/h | 1297m | 8.6m/s | -51.9°C | 0% | 66.2hPa | 2.3V | 00:00:00 | 00:00:00 | 00:00:00 | |
| AA1-15 | 2026-08-30 12:14:29 | 54.95274 | 19.27299 | 199° | 97km/h | 1299m | 8.2m/s | -51.9°C | 0% | 66.3hPa | 2.3V | 00:00:00 | 00:00:00 | 00:00:00 | |
| AA1-15 | 2026-08-30 12:14:27 | 54.95296 | 19.27315 | 193° | 99km/h | 1305m | 8.3m/s | -51.9°C | 0% | 66.3hPa | 2.3V | 00:00:00 | 00:00:00 | 00:00:00 | |
| AA1-15 | 2026-08-30 12:14:26 | 54.95318 | 19.27326 | 188° | 95km/h | 1306m | 9.5m/s | -51.9°C | 0% | 66.4hPa | 2.3V | 00:00:00 | 00:00:00 | 00:00:00 | |
| AA1-15 | 2026-08-30 12:14:23 | 54.95390 | 19.27326 | 169° | 97km/h | 1292m | 8.4m/s | -51.9°C | 0% | 66.5hPa | 2.3V | 00:00:00 | 00:00:00 | 00:00:00 | |
| AA1-15 | 2026-08-30 12:14:20 | 54.95458 | 19.27281 | 149° | 97km/h | 1263m | 8.9m/s | -52.1°C | 0% | 66.7hPa | 2.3V | 00:00:00 | 00:00:00 | 00:00:00 | |
| AA1-15 | 2026-08-30 12:14:18 | 54.95529 | 19.27166 | 125° | 95km/h | 1215m | 8.1m/s | -52.2°C | 0% | 66.9hPa | 2.3V | 00:00:00 | 00:00:00 | 00:00:00 | |
| AA1-15 | 2026-08-30 12:14:14 | 54.95553 | 19.27094 | 114° | 99km/h | 1197m | 8.2m/s | -52.3°C | 0% | 67hPa | 2.3V | 00:00:00 | 00:00:00 | 00:00:00 | |
| AA1-15 | 2026-08-30 12:14:13 | 54.95562 | 19.27056 | 110° | 97km/h | 1188m | 8.1m/s | -52.4°C | 0% | 67.1hPa | 2.3V | 00:00:00 | 00:00:00 | 00:00:00 | |
| AA1-15 | 2026-08-30 12:14:11 | 54.95575 | 19.26975 | 98° | 97km/h | 1169m | 8.1m/s | -52.4°C | 0% | 67.2hPa | 2.3V | 00:00:00 | 00:00:00 | 00:00:00 | |
| AA1-15 | 2026-08-30 12:14:10 | 54.95578 | 19.26934 | 94° | 95km/h | 1159m | 8.1m/s | -52.4°C | 0% | 67.2hPa | 2.3V | 00:00:00 | 00:00:00 | 00:00:00 | |
| AA1-15 | 2026-08-30 12:14:08 | 54.95576 | 19.26851 | 78° | 99km/h | 1138m | 8m/s | -52.4°C | 0% | 67.3hPa | 2.3V | 00:00:00 | 00:00:00 | 00:00:00 | |
| AA1-15 | 2026-08-30 12:14:07 | 54.95570 | 19.26812 | 74° | 95km/h | 1126m | 7.9m/s | -52.4°C | 0% | 67.4hPa | 2.3V | 00:00:00 | 00:00:00 | 00:00:00 | |
| AA1-15 | 2026-08-30 12:14:06 | 54.95554 | 19.26742 | 60° | 95km/h | 1106m | 8.4m/s | -52.3°C | 0% | 67.5hPa | 2.3V | 00:00:00 | 00:00:00 | 00:00:00 | |
| AA1-15 | 2026-08-30 12:14:05 | 54.95540 | 19.26711 | 54° | 95km/h | 1098m | 8.2m/s | -52.4°C | 0% | 67.5hPa | 2.3V | 00:00:00 | 00:00:00 | 00:00:00 | |
| SP3BTT-10 | 2026-08-30 12:11:28 | 54.96774 | 18.21391 | 132° | 42km/h | 18048m | 10.3m/s | 0°C | 0% | 0hPa | 0V | 00:00:00 | 00:00:00 | 00:00:00 | |
| SP3BTT-10 | 2026-08-30 11:57:46 | 54.94053 | 18.08937 | 72° | 49km/h | 14225m | 5.4m/s | 0°C | 0% | 0hPa | 0V | 00:00:00 | 00:00:00 | 00:00:00 | |
| SP3BTT-10 | 2026-08-30 11:56:36 | 54.93868 | 18.07595 | 83° | 53km/h | 13925m | 4.3m/s | 0°C | 0% | 0hPa | 0V | 00:00:00 | 00:00:00 | 00:00:00 | |
| SP3BTT-10 | 2026-08-30 11:55:53 | 54.93737 | 18.06626 | 71° | 57km/h | 13736m | 7.0m/s | 0°C | 0% | 0hPa | 0V | 00:00:00 | 00:00:00 | 00:00:00 | |
| SP3BTT-10 | 2026-08-30 11:54:29 | 54.93268 | 18.04634 | 86° | 57km/h | 13332m | 5.4m/s | 0°C | 0% | 0hPa | 0V | 00:00:00 | 00:00:00 | 00:00:00 | |
| SP3BTT-10 | 2026-08-30 11:53:33 | 54.93011 | 18.03384 | 69° | 57km/h | 12998m | 5.3m/s | 0°C | 0% | 0hPa | 0V | 00:00:00 | 00:00:00 | 00:00:00 | |
| SP3BTT-10 | 2026-08-30 11:52:28 | 54.92817 | 18.01998 | 71° | 60km/h | 12604m | -1.2m/s | 0°C | 0% | 0hPa | 0V | 00:00:00 | 00:00:00 | 00:00:00 | |
| SP3BTT-10 | 2026-08-30 11:50:11 | 54.92017 | 17.99055 | 74° | 57km/h | 11859m | 3.9m/s | 0°C | 0% | 0hPa | 0V | 00:00:00 | 00:00:00 | 00:00:00 | |
| SP3BTT-10 | 2026-08-30 11:49:14 | 54.91692 | 17.97641 | 67° | 58km/h | 11532m | 7.5m/s | 0°C | 0% | 0hPa | 0V | 00:00:00 | 00:00:00 | 00:00:00 | |
| SP3BTT-10 | 2026-08-30 11:47:26 | 54.90945 | 17.94952 | 67° | 68km/h | 10911m | 6.2m/s | 0°C | 0% | 0hPa | 0V | 00:00:00 | 00:00:00 | 00:00:00 |